Observation data for Fort Chadbourne on 03/11/2018      Previous  Date  Next       Current Mesonet Observations  Soil Data  Daily Summary Page  Observations in Plain Language
KCH1 110600Z 34004KT 18/M04 A298 RMK A01 T01771036  RH  023%=      5-min Rain = 0
KCH1 110601Z 34005KT 18/M04 A298 RMK A01 T01771035  RH  023%=      5-min Rain = 0
KCH1 110602Z 33004KT 18/M04 A298 RMK A01 T01771035  RH  023%=      5-min Rain = 0
KCH1 110603Z 33004KT 18/M04 A298 RMK A01 T01771036  RH  023%=      5-min Rain = 0
KCH1 110604Z 33004KT 18/M04 A298 RMK A01 T01771037  RH  023%=      5-min Rain = 0
KCH1 110605Z 34004KT 18/M04 A298 RMK A01 T01771037  RH  023%=      5-min Rain = 0
KCH1 110606Z 34004KT 18/M04 A298 RMK A01 T01771038  RH  023%=      5-min Rain = 0
KCH1 110607Z 35004KT 18/M04 A298 RMK A01 T01771038  RH  023%=      5-min Rain = 0
KCH1 110608Z 35004KT 18/M04 A298 RMK A01 T01771037  RH  023%=      5-min Rain = 0
KCH1 110609Z 35004KT 18/M04 A298 RMK A01 T01771037  RH  023%=      5-min Rain = 0
KCH1 110610Z 35004KT 18/M04 A298 RMK A01 T01771037  RH  023%=      5-min Rain = 0
KCH1 110611Z 36004KT 18/M04 A298 RMK A01 T01771037  RH  023%=      5-min Rain = 0
KCH1 110612Z 35003KT 18/M04 A298 RMK A01 T01761036  RH  023%=      5-min Rain = 0
KCH1 110613Z 35004KT 18/M04 A298 RMK A01 T01761037  RH  023%=      5-min Rain = 0
KCH1 110614Z 34003KT 18/M04 A298 RMK A01 T01751037  RH  023%=      5-min Rain = 0
KCH1 110615Z 34003KT 18/M04 A298 RMK A01 T01751037  RH  023%=      5-min Rain = 0
KCH1 110616Z 34004KT 17/M04 A298 RMK A01 T01741039  RH  023%=      5-min Rain = 0
KCH1 110617Z 34004KT 18/M04 A298 RMK A01 T01751038  RH  023%=      5-min Rain = 0
KCH1 110618Z 35004KT 18/M04 A2979 RMK A01 T01751039  RH  023%=      5-min Rain = 0
KCH1 110619Z 35004KT 18/M04 A2979 RMK A01 T01761038  RH  023%=      5-min Rain = 0
KCH1 110620Z 35004KT 18/M04 A2979 RMK A01 T01761038  RH  023%=      5-min Rain = 0
KCH1 110621Z 35004KT 18/M04 A2979 RMK A01 T01761038  RH  023%=      5-min Rain = 0
KCH1 110622Z 35004KT 18/M04 A2979 RMK A01 T01761039  RH  023%=      5-min Rain = 0
KCH1 110623Z 33004KT 18/M04 A2979 RMK A01 T01761038  RH  023%=      5-min Rain = 0
KCH1 110624Z 33004KT 18/M04 A2979 RMK A01 T01761036  RH  023%=      5-min Rain = 0
KCH1 110625Z 33005KT 18/M04 A2979 RMK A01 T01761038  RH  023%=      5-min Rain = 0
KCH1 110626Z 33004KT 18/M04 A2979 RMK A01 T01771039  RH  023%=      5-min Rain = 0
KCH1 110627Z 34004KT 18/M04 A2979 RMK A01 T01781037  RH  023%=      5-min Rain = 0
KCH1 110628Z 34004KT 18/M04 A2979 RMK A01 T01781038  RH  023%=      5-min Rain = 0
KCH1 110629Z 33004KT 18/M04 A2979 RMK A01 T01781038  RH  023%=      5-min Rain = 0
KCH1 110630Z 33004KT 18/M04 A2979 RMK A01 T01781038  RH  023%=      5-min Rain = 0
KCH1 110631Z 33004KT 18/M04 A2979 RMK A01 T01781039  RH  023%=      5-min Rain = 0
KCH1 110632Z 34004KT 18/M04 A2979 RMK A01 T01781039  RH  023%=      5-min Rain = 0
KCH1 110633Z 34004KT 18/M04 A2979 RMK A01 T01781038  RH  023%=      5-min Rain = 0
KCH1 110634Z 35005KT 18/M04 A2979 RMK A01 T01781038  RH  023%=      5-min Rain = 0
KCH1 110635Z 35005KT 18/M04 A2979 RMK A01 T01781037  RH  023%=      5-min Rain = 0
KCH1 110636Z 35004KT 18/M04 A2979 RMK A01 T01771037  RH  023%=      5-min Rain = 0
KCH1 110637Z 35004KT 18/M04 A2979 RMK A01 T01761037  RH  023%=      5-min Rain = 0
KCH1 110638Z 35004KT 18/M04 A2979 RMK A01 T01761037  RH  023%=      5-min Rain = 0
KCH1 110639Z 35003KT 18/M04 A2979 RMK A01 T01751037  RH  023%=      5-min Rain = 0
KCH1 110640Z 35003KT 18/M04 A2979 RMK A01 T01751036  RH  023%=      5-min Rain = 0
KCH1 110641Z 35003KT 18/M03 A2979 RMK A01 T01751032  RH  024%=      5-min Rain = 0
KCH1 110642Z 34003KT 17/M03 A2979 RMK A01 T01741033  RH  024%=      5-min Rain = 0
KCH1 110643Z 33003KT 17/M03 A2979 RMK A01 T01731034  RH  024%=      5-min Rain = 0
KCH1 110644Z 32003KT 17/M04 A2979 RMK A01 T01731036  RH  024%=      5-min Rain = 0
KCH1 110645Z 30003KT 17/M04 A2979 RMK A01 T01721038  RH  023%=      5-min Rain = 0
KCH1 110646Z 28004KT 17/M04 A2979 RMK A01 T01731037  RH  024%=      5-min Rain = 0
KCH1 110647Z 25003KT 17/M03 A2979 RMK A01 T01741028  RH  025%=      5-min Rain = 0
KCH1 110648Z 29003KT 17/M02 A2979 RMK A01 T01711015  RH  028%=      5-min Rain = 0
KCH1 110649Z 30004KT 17/M02 A2979 RMK A01 T01681016  RH  028%=      5-min Rain = 0
KCH1 110650Z 30004KT 17/M01 A2979 RMK A01 T01671014  RH  029%=      5-min Rain = 0
KCH1 110651Z 30004KT 17/M01 A2979 RMK A01 T01651012  RH  030%=      5-min Rain = 0
KCH1 110652Z 30004KT 16/M01 A2979 RMK A01 T01631009  RH  031%=      5-min Rain = 0
KCH1 110653Z 30005KT 16/M01 A2979 RMK A01 T01621008  RH  031%=      5-min Rain = 0
KCH1 110654Z 30004KT 16/M01 A2979 RMK A01 T01611008  RH  032%=      5-min Rain = 0
KCH1 110655Z 29004KT 16/M01 A2979 RMK A01 T01601010  RH  031%=      5-min Rain = 0
KCH1 110656Z 31004KT 16/M00 A2979 RMK A01 T01601003  RH  033%=      5-min Rain = 0
KCH1 110657Z 33006KT 16/M00 A2979 RMK A01 T01601003  RH  033%=      5-min Rain = 0
KCH1 110658Z 34006KT 16/00 A298 RMK A01 T01600001  RH  034%=      5-min Rain = 0
KCH1 110659Z 33005KT 16/00 A2979 RMK A01 T01600000  RH  034%=      5-min Rain = 0
KCH1 110700Z 31005KT 16/M01 A2979 RMK A01 T01621012  RH  030%=      5-min Rain = 0
KCH1 110701Z 30004KT 17/M02 A2979 RMK A01 T01661015  RH  029%=      5-min Rain = 0
KCH1 110702Z 30004KT 17/M02 A2979 RMK A01 T01691015  RH  029%=      5-min Rain = 0
KCH1 110703Z 30005KT 17/M01 A2979 RMK A01 T01711014  RH  028%=      5-min Rain = 0
KCH1 110704Z 30004KT 17/M01 A298 RMK A01 T01731013  RH  028%=      5-min Rain = 0
KCH1 110705Z 31004KT 17/M01 A298 RMK A01 T01731012  RH  028%=      5-min Rain = 0
KCH1 110706Z 32004KT 17/M01 A298 RMK A01 T01741008  RH  029%=      5-min Rain = 0
KCH1 110707Z 33004KT 17/M01 A2979 RMK A01 T01731006  RH  030%=      5-min Rain = 0
KCH1 110708Z 33004KT 17/M00 A2979 RMK A01 T01721004  RH  030%=      5-min Rain = 0
KCH1 110709Z 32004KT 17/M01 A2979 RMK A01 T01711005  RH  030%=      5-min Rain = 0
KCH1 110710Z 32004KT 17/M01 A2979 RMK A01 T01701005  RH  030%=      5-min Rain = 0
KCH1 110711Z 32005KT 17/M01 A2979 RMK A01 T01701006  RH  030%=      5-min Rain = 0
KCH1 110712Z 31005KT 17/M01 A2979 RMK A01 T01701007  RH  030%=      5-min Rain = 0
KCH1 110713Z 32005KT 17/M01 A2979 RMK A01 T01711011  RH  029%=      5-min Rain = 0
KCH1 110714Z 32005KT 17/M02 A2979 RMK A01 T01721016  RH  028%=      5-min Rain = 0
KCH1 110715Z 32005KT 17/M02 A2979 RMK A01 T01731019  RH  027%=      5-min Rain = 0
KCH1 110716Z 32005KT 17/M02 A298 RMK A01 T01741021  RH  026%=      5-min Rain = 0
KCH1 110717Z 33004KT 18/M02 A298 RMK A01 T01751022  RH  026%=      5-min Rain = 0
KCH1 110718Z 35004KT 18/M02 A298 RMK A01 T01751022  RH  026%=      5-min Rain = 0
KCH1 110719Z 36005KT 18/M02 A298 RMK A01 T01751020  RH  026%=      5-min Rain = 0
KCH1 110720Z 00009KT 18/M02 A2981 RMK A01 T01751018  RH  027%=      5-min Rain = 0
KCH1 110721Z 35012KT 17/M02 A2981 RMK A01 T01721016  RH  028%=      5-min Rain = 0
KCH1 110722Z 35011G16KT 17/M03 A2981 RMK A01 T01711027  RH  026%=      5-min Rain = 0
KCH1 110723Z 35011KT 17/M03 A2982 RMK A01 T01741031  RH  024%=      5-min Rain = 0
KCH1 110724Z 32009KT 18/M03 A2982 RMK A01 T01781033  RH  024%=      5-min Rain = 0
KCH1 110725Z 34009G15KT 18/M04 A2981 RMK A01 T01811038  RH  022%=      5-min Rain = 0
KCH1 110726Z 34008KT 19/M04 A2981 RMK A01 T01871037  RH  022%=      5-min Rain = 0
KCH1 110727Z 34007KT 19/M04 A2981 RMK A01 T01901038  RH  021%=      5-min Rain = 0
KCH1 110728Z 33006KT 19/M04 A2982 RMK A01 T01911037  RH  021%=      5-min Rain = 0
KCH1 110729Z 34006KT 19/M04 A2982 RMK A01 T01911037  RH  021%=      5-min Rain = 0
KCH1 110730Z 35008KT 19/M04 A2982 RMK A01 T01911036  RH  021%=      5-min Rain = 0
KCH1 110731Z 35008KT 19/M04 A2982 RMK A01 T01901037  RH  021%=      5-min Rain = 0
KCH1 110732Z 34010KT 19/M04 A2982 RMK A01 T01911038  RH  021%=      5-min Rain = 0
KCH1 110733Z 33008KT 19/M04 A2982 RMK A01 T01931036  RH  021%=      5-min Rain = 0
KCH1 110734Z 33009KT 19/M04 A2982 RMK A01 T01941036  RH  021%=      5-min Rain = 0
KCH1 110735Z 34009KT 19/M04 A2982 RMK A01 T01941035  RH  021%=      5-min Rain = 0
KCH1 110736Z 34007KT 19/M04 A2982 RMK A01 T01941035  RH  021%=      5-min Rain = 0
KCH1 110737Z 34007KT 19/M03 A2982 RMK A01 T01941034  RH  021%=      5-min Rain = 0
KCH1 110738Z 34006KT 19/M03 A2982 RMK A01 T01931033  RH  021%=      5-min Rain = 0
KCH1 110739Z 35005KT 19/M03 A2982 RMK A01 T01931032  RH  022%=      5-min Rain = 0
KCH1 110740Z 35004KT 19/M03 A2982 RMK A01 T01921032  RH  022%=      5-min Rain = 0
KCH1 110741Z 35005KT 19/M03 A2982 RMK A01 T01911033  RH  022%=      5-min Rain = 0
KCH1 110742Z 35005KT 19/M03 A2982 RMK A01 T01911032  RH  022%=      5-min Rain = 0
KCH1 110743Z 36005KT 19/M03 A2983 RMK A01 T01911032  RH  022%=      5-min Rain = 0
KCH1 110744Z 35006KT 19/M03 A2983 RMK A01 T01911031  RH  022%=      5-min Rain = 0
KCH1 110745Z 35004KT 19/M03 A2983 RMK A01 T01901029  RH  022%=      5-min Rain = 0
KCH1 110746Z 33003KT 19/M03 A2983 RMK A01 T01891029  RH  023%=      5-min Rain = 0
KCH1 110747Z 32003KT 19/M03 A2983 RMK A01 T01891030  RH  022%=      5-min Rain = 0
KCH1 110748Z 31003KT 19/M03 A2983 RMK A01 T01891029  RH  023%=      5-min Rain = 0
KCH1 110749Z 31004KT 19/M03 A2983 RMK A01 T01881029  RH  023%=      5-min Rain = 0
KCH1 110750Z 31004KT 19/M03 A2983 RMK A01 T01881029  RH  023%=      5-min Rain = 0
KCH1 110751Z 32005KT 19/M03 A2983 RMK A01 T01881029  RH  023%=      5-min Rain = 0
KCH1 110752Z 33005KT 19/M03 A2983 RMK A01 T01881029  RH  023%=      5-min Rain = 0
KCH1 110753Z 33005KT 19/M03 A2983 RMK A01 T01881028  RH  023%=      5-min Rain = 0
KCH1 110754Z 34005KT 19/M03 A2983 RMK A01 T01871027  RH  023%=      5-min Rain = 0
KCH1 110755Z 35005KT 19/M03 A2983 RMK A01 T01871027  RH  023%=      5-min Rain = 0
KCH1 110756Z 34004KT 19/M03 A2983 RMK A01 T01861028  RH  023%=      5-min Rain = 0
KCH1 110757Z 34006KT 19/M03 A2983 RMK A01 T01861029  RH  023%=      5-min Rain = 0
KCH1 110758Z 35006KT 19/M03 A2983 RMK A01 T01861029  RH  023%=      5-min Rain = 0
KCH1 110759Z 35005KT 19/M03 A2983 RMK A01 T01861031  RH  023%=      5-min Rain = 0
KCH1 110800Z 34005KT 19/M03 A2983 RMK A01 T01871031  RH  022%=      5-min Rain = 0
KCH1 110801Z 33005KT 19/M03 A2983 RMK A01 T01881030  RH  023%=      5-min Rain = 0
KCH1 110802Z 33005KT 19/M03 A2983 RMK A01 T01881029  RH  023%=      5-min Rain = 0
KCH1 110803Z 34004KT 19/M03 A2982 RMK A01 T01881030  RH  023%=      5-min Rain = 0
KCH1 110804Z 33004KT 19/M03 A2982 RMK A01 T01881031  RH  023%=      5-min Rain = 0
KCH1 110805Z 31004KT 19/M03 A2982 RMK A01 T01881030  RH  023%=      5-min Rain = 0
KCH1 110806Z 30005KT 19/M03 A2982 RMK A01 T01871029  RH  023%=      5-min Rain = 0
KCH1 110807Z 29004KT 19/M03 A2982 RMK A01 T01871026  RH  023%=      5-min Rain = 0
KCH1 110808Z 29004KT 19/M03 A2982 RMK A01 T01861026  RH  024%=      5-min Rain = 0
KCH1 110809Z 31005KT 19/M02 A2982 RMK A01 T01851024  RH  024%=      5-min Rain = 0
KCH1 110810Z 31006KT 18/M02 A2982 RMK A01 T01841023  RH  024%=      5-min Rain = 0
KCH1 110811Z 32004KT 18/M02 A2982 RMK A01 T01831024  RH  024%=      5-min Rain = 0
KCH1 110812Z 31003KT 18/M02 A2982 RMK A01 T01831023  RH  025%=      5-min Rain = 0
KCH1 110813Z 31004KT 18/M02 A2982 RMK A01 T01831022  RH  025%=      5-min Rain = 0
KCH1 110814Z 31005KT 18/M02 A2982 RMK A01 T01821021  RH  025%=      5-min Rain = 0
KCH1 110815Z 32005KT 18/M02 A2982 RMK A01 T01811021  RH  025%=      5-min Rain = 0
KCH1 110816Z 34004KT 18/M02 A2982 RMK A01 T01811020  RH  025%=      5-min Rain = 0
KCH1 110817Z 01003KT 18/M02 A2982 RMK A01 T01801019  RH  026%=      5-min Rain = 0
KCH1 110818Z 04003KT 18/M02 A2982 RMK A01 T01791017  RH  026%=      5-min Rain = 0
KCH1 110819Z 05004KT 18/M02 A2982 RMK A01 T01751015  RH  027%=      5-min Rain = 0
KCH1 110820Z 05005KT 17/M01 A2982 RMK A01 T01731013  RH  028%=      5-min Rain = 0
KCH1 110821Z 05007KT 17/M01 A2982 RMK A01 T01701007  RH  030%=      5-min Rain = 0
KCH1 110822Z 06007KT 17/M00 A2982 RMK A01 T01661004  RH  031%=      5-min Rain = 0
KCH1 110823Z 04008KT 16/M01 A2982 RMK A01 T01631006  RH  032%=      5-min Rain = 0
KCH1 110824Z 03010KT 16/M01 A2983 RMK A01 T01621008  RH  031%=      5-min Rain = 0
KCH1 110825Z 02009KT 16/M01 A2984 RMK A01 T01621011  RH  031%=      5-min Rain = 0
KCH1 110826Z 01010KT 16/M02 A2985 RMK A01 T01641016  RH  029%=      5-min Rain = 0
KCH1 110827Z 01008KT 17/M02 A2984 RMK A01 T01681016  RH  029%=      5-min Rain = 0
KCH1 110828Z 00009KT 17/M01 A2984 RMK A01 T01701013  RH  029%=      5-min Rain = 0
KCH1 110829Z 01010KT 17/01 A2984 RMK A01 T01730013  RH  034%=      5-min Rain = 0
KCH1 110830Z 02012G17KT 18/03 A2984 RMK A01 T01760026  RH  037%=      5-min Rain = 0
KCH1 110831Z 02009KT 18/04 A2984 RMK A01 T01790037  RH  039%=      5-min Rain = 0
KCH1 110832Z 01008KT 18/04 A2984 RMK A01 T01810041  RH  039%=      5-min Rain = 0
KCH1 110833Z 01010G16KT 18/05 A2984 RMK A01 T01820052  RH  042%=      5-min Rain = 0
KCH1 110834Z 02014KT 18/06 A2985 RMK A01 T01840056  RH  043%=      5-min Rain = 0
KCH1 110835Z 01012G17KT 19/06 A2985 RMK A01 T01860056  RH  042%=      5-min Rain = 0
KCH1 110836Z 02009KT 19/06 A2985 RMK A01 T01870057  RH  042%=      5-min Rain = 0
KCH1 110837Z 02009KT 19/06 A2984 RMK A01 T01870057  RH  042%=      5-min Rain = 0
KCH1 110838Z 02010KT 19/06 A2985 RMK A01 T01870058  RH  043%=      5-min Rain = 0
KCH1 110839Z 02012KT 19/06 A2985 RMK A01 T01860060  RH  044%=      5-min Rain = 0
KCH1 110840Z 01014KT 19/06 A2985 RMK A01 T01860062  RH  044%=      5-min Rain = 0
KCH1 110841Z 01017KT 19/07 A2985 RMK A01 T01850067  RH  046%=      5-min Rain = 0
KCH1 110842Z 02013G20KT 19/07 A2985 RMK A01 T01850070  RH  047%=      5-min Rain = 0
KCH1 110843Z 02014KT 19/07 A2985 RMK A01 T01850071  RH  048%=      5-min Rain = 0
KCH1 110844Z 01016KT 18/07 A2985 RMK A01 T01840072  RH  048%=      5-min Rain = 0
KCH1 110845Z 02014G19KT 18/07 A2986 RMK A01 T01830072  RH  048%=      5-min Rain = 0
KCH1 110846Z 02010KT 18/07 A2986 RMK A01 T01830071  RH  048%=      5-min Rain = 0
KCH1 110847Z 01018G29KT 18/07 A2986 RMK A01 T01810069  RH  048%=      5-min Rain = 0
KCH1 110848Z 02018G29KT 18/06 A2986 RMK A01 T01800063  RH  046%=      5-min Rain = 0
KCH1 110849Z 02019G24KT 18/06 A2986 RMK A01 T01780061  RH  046%=      5-min Rain = 0
KCH1 110850Z 01016KT 18/06 A2986 RMK A01 T01760060  RH  046%=      5-min Rain = 0
KCH1 110851Z 01014G23KT 18/06 A2986 RMK A01 T01750059  RH  047%=      5-min Rain = 0
KCH1 110852Z 02016G22KT 17/06 A2987 RMK A01 T01740060  RH  047%=      5-min Rain = 0
KCH1 110853Z 03010KT 17/06 A2987 RMK A01 T01720060  RH  048%=      5-min Rain = 0
KCH1 110854Z 01011G19KT 17/06 A2987 RMK A01 T01710060  RH  048%=      5-min Rain = 0
KCH1 110855Z 02021G28KT 17/07 A2987 RMK A01 T01700066  RH  050%=      5-min Rain = 0
KCH1 110856Z 03016G22KT 17/07 A2987 RMK A01 T01690071  RH  053%=      5-min Rain = 0
KCH1 110857Z 02015G20KT 17/07 A2987 RMK A01 T01670073  RH  054%=      5-min Rain = 0
KCH1 110858Z 03013KT 17/08 A2987 RMK A01 T01660075  RH  055%=      5-min Rain = 0
KCH1 110859Z 02014G19KT 17/08 A2987 RMK A01 T01650079  RH  057%=      5-min Rain = 0
KCH1 110900Z 03019KT 16/08 A2987 RMK A01 T01640084  RH  059%=      5-min Rain = 0
KCH1 110901Z 02020G25KT 16/09 A2987 RMK A01 T01640087  RH  060%=      5-min Rain = 0
KCH1 110902Z 02019G25KT 16/09 A2987 RMK A01 T01630090  RH  062%=      5-min Rain = 0
KCH1 110903Z 03015G21KT 16/09 A2987 RMK A01 T01630092  RH  063%=      5-min Rain = 0
KCH1 110904Z 02015G21KT 16/09 A2987 RMK A01 T01630093  RH  063%=      5-min Rain = 0
KCH1 110905Z 02020G27KT 16/09 A2987 RMK A01 T01630094  RH  064%=      5-min Rain = 0
KCH1 110906Z 02018G26KT 16/10 A2987 RMK A01 T01630096  RH  064%=      5-min Rain = 0
KCH1 110907Z 03016G23KT 16/10 A2987 RMK A01 T01630096  RH  064%=      5-min Rain = 0
KCH1 110908Z 02020KT 16/10 A2987 RMK A01 T01620097  RH  065%=      5-min Rain = 0
KCH1 110909Z 02014G20KT 16/10 A2987 RMK A01 T01620097  RH  065%=      5-min Rain = 0
KCH1 110910Z 03020G28KT 16/10 A2987 RMK A01 T01620098  RH  065%=      5-min Rain = 0
KCH1 110911Z 02017G25KT 16/10 A2987 RMK A01 T01620098  RH  066%=      5-min Rain = 0
KCH1 110912Z 03020G25KT 16/10 A2987 RMK A01 T01620099  RH  066%=      5-min Rain = 0
KCH1 110913Z 02018G27KT 16/10 A2987 RMK A01 T01620099  RH  066%=      5-min Rain = 0
KCH1 110914Z 02019G33KT 16/10 A2987 RMK A01 T01630100  RH  066%=      5-min Rain = 0
KCH1 110915Z 03022G29KT 16/10 A2987 RMK A01 T01630100  RH  066%=      5-min Rain = 0
KCH1 110916Z 03019KT 16/10 A2987 RMK A01 T01630101  RH  067%=      5-min Rain = 0
KCH1 110917Z 02017G24KT 16/10 A2987 RMK A01 T01630101  RH  067%=      5-min Rain = 0
KCH1 110918Z 02016G22KT 16/10 A2987 RMK A01 T01620100  RH  067%=      5-min Rain = 0
KCH1 110919Z 02016G23KT 16/10 A2987 RMK A01 T01620100  RH  067%=      5-min Rain = 0
KCH1 110920Z 02017KT 16/10 A2987 RMK A01 T01620100  RH  067%=      5-min Rain = 0
KCH1 110921Z 02017G26KT 16/10 A2987 RMK A01 T01620100  RH  067%=      5-min Rain = 0
KCH1 110922Z 02013G21KT 16/10 A2987 RMK A01 T01620101  RH  067%=      5-min Rain = 0
KCH1 110923Z 02016G25KT 16/10 A2987 RMK A01 T01620101  RH  067%=      5-min Rain = 0
KCH1 110924Z 02014G20KT 16/10 A2987 RMK A01 T01610101  RH  067%=      5-min Rain = 0
KCH1 110925Z 02014G19KT 16/10 A2987 RMK A01 T01610101  RH  068%=      5-min Rain = 0
KCH1 110926Z 01019G24KT 16/10 A2987 RMK A01 T01610101  RH  068%=      5-min Rain = 0
KCH1 110927Z 02017G23KT 16/10 A2987 RMK A01 T01610102  RH  068%=      5-min Rain = 0
KCH1 110928Z 02016G28KT 16/10 A2988 RMK A01 T01610102  RH  068%=      5-min Rain = 0
KCH1 110929Z 02017G24KT 16/10 A2988 RMK A01 T01600102  RH  069%=      5-min Rain = 0
KCH1 110930Z 01018G31KT 16/10 A2988 RMK A01 T01590103  RH  069%=      5-min Rain = 0
KCH1 110931Z 03025G32KT 16/10 A2988 RMK A01 T01590104  RH  070%=      5-min Rain = 0
KCH1 110932Z 02019G27KT 16/10 A2988 RMK A01 T01590104  RH  070%=      5-min Rain = 0
KCH1 110933Z 03016G21KT 16/10 A2988 RMK A01 T01580104  RH  070%=      5-min Rain = 0
KCH1 110934Z 03021G27KT 16/10 A2988 RMK A01 T01580104  RH  070%=      5-min Rain = 0
KCH1 110935Z 02020G27KT 16/11 A2988 RMK A01 T01580105  RH  071%=      5-min Rain = 0
KCH1 110936Z 02025G33KT 16/11 A2988 RMK A01 T01570105  RH  071%=      5-min Rain = 0
KCH1 110937Z 02022G27KT 16/11 A2988 RMK A01 T01570106  RH  072%=      5-min Rain = 0
KCH1 110938Z 02019G29KT 16/11 A2988 RMK A01 T01570106  RH  072%=      5-min Rain = 0
KCH1 110939Z 02023G28KT 16/11 A2988 RMK A01 T01570107  RH  072%=      5-min Rain = 0
KCH1 110940Z 03018G24KT 16/11 A2988 RMK A01 T01560107  RH  072%=      5-min Rain = 0
KCH1 110941Z 02021G30KT 16/11 A2988 RMK A01 T01560107  RH  073%=      5-min Rain = 0
KCH1 110942Z 02022G29KT 16/11 A2987 RMK A01 T01560108  RH  073%=      5-min Rain = 0
KCH1 110943Z 03021G28KT 16/11 A2987 RMK A01 T01560108  RH  073%=      5-min Rain = 0
KCH1 110944Z 02013G22KT 16/11 A2987 RMK A01 T01560108  RH  073%=      5-min Rain = 0
KCH1 110945Z 03019G24KT 16/11 A2988 RMK A01 T01550108  RH  073%=      5-min Rain = 0
KCH1 110946Z 02021KT 16/11 A2988 RMK A01 T01550108  RH  073%=      5-min Rain = 0
KCH1 110947Z 03024G33KT 16/11 A2988 RMK A01 T01550108  RH  074%=      5-min Rain = 0
KCH1 110948Z 02015G21KT 16/11 A2988 RMK A01 T01550108  RH  074%=      5-min Rain = 0
KCH1 110949Z 03022G29KT 16/11 A2988 RMK A01 T01550108  RH  074%=      5-min Rain = 0
KCH1 110950Z 02018G28KT 16/11 A2988 RMK A01 T01550109  RH  074%=      5-min Rain = 0
KCH1 110951Z 02016G25KT 16/11 A2988 RMK A01 T01550108  RH  074%=      5-min Rain = 0
KCH1 110952Z 03016G21KT 16/11 A2988 RMK A01 T01550108  RH  074%=      5-min Rain = 0
KCH1 110953Z 02018G30KT 15/11 A2988 RMK A01 T01540108  RH  074%=      5-min Rain = 0
KCH1 110954Z 02020G28KT 15/11 A2988 RMK A01 T01540108  RH  074%=      5-min Rain = 0
KCH1 110955Z 02022G29KT 15/11 A2988 RMK A01 T01540108  RH  074%=      5-min Rain = 0
KCH1 110956Z 02019G27KT 15/11 A2988 RMK A01 T01540108  RH  074%=      5-min Rain = 0
KCH1 110957Z 02023G29KT 15/11 A2988 RMK A01 T01540108  RH  074%=      5-min Rain = 0
KCH1 110958Z 03018G25KT 15/11 A2988 RMK A01 T01540108  RH  074%=      5-min Rain = 0
KCH1 110959Z 02022G32KT 15/11 A2988 RMK A01 T01540108  RH  074%=      5-min Rain = 0
KCH1 111000Z 02023G30KT 15/11 A2988 RMK A01 T01540109  RH  074%=      5-min Rain = 0
KCH1 111001Z 02024G32KT 15/11 A2988 RMK A01 T01540108  RH  074%=      5-min Rain = 0
KCH1 111002Z 02019G26KT 15/11 A2989 RMK A01 T01540108  RH  074%=      5-min Rain = 0
KCH1 111003Z 02020G30KT 15/11 A2989 RMK A01 T01540107  RH  074%=      5-min Rain = 0
KCH1 111004Z 03022G29KT 15/11 A2989 RMK A01 T01540107  RH  074%=      5-min Rain = 0
KCH1 111005Z 02017G24KT 15/11 A2989 RMK A01 T01540107  RH  074%=      5-min Rain = 0
KCH1 111006Z 02015G24KT 15/11 A2989 RMK A01 T01530106  RH  074%=      5-min Rain = 0
KCH1 111007Z 02020KT 15/11 A2989 RMK A01 T01530106  RH  074%=      5-min Rain = 0
KCH1 111008Z 02020G28KT 15/11 A2989 RMK A01 T01530106  RH  074%=      5-min Rain = 0
KCH1 111009Z 02021G28KT 15/11 A2989 RMK A01 T01530106  RH  074%=      5-min Rain = 0
KCH1 111010Z 02021G27KT 15/11 A2989 RMK A01 T01530105  RH  073%=      5-min Rain = 0
KCH1 111011Z 02017G26KT 15/11 A299 RMK A01 T01530105  RH  073%=      5-min Rain = 0
KCH1 111012Z 01019KT 15/11 A299 RMK A01 T01520105  RH  073%=      5-min Rain = 0
KCH1 111013Z 02015KT 15/11 A299 RMK A01 T01520105  RH  073%=      5-min Rain = 0
KCH1 111014Z 02017G25KT 15/10 A299 RMK A01 T01520104  RH  073%=      5-min Rain = 0
KCH1 111015Z 02020KT 15/10 A299 RMK A01 T01510103  RH  073%=      5-min Rain = 0
KCH1 111016Z 02019KT 15/10 A299 RMK A01 T01510101  RH  072%=      5-min Rain = 0
KCH1 111017Z 02017G24KT 15/10 A299 RMK A01 T01510099  RH  071%=      5-min Rain = 0
KCH1 111018Z 02016G26KT 15/10 A299 RMK A01 T01510098  RH  070%=      5-min Rain = 0
KCH1 111019Z 01018G30KT 15/10 A299 RMK A01 T01500095  RH  070%=      5-min Rain = 0
KCH1 111020Z 02018G24KT 15/09 A299 RMK A01 T01500092  RH  068%=      5-min Rain = 0
KCH1 111021Z 01021G32KT 15/09 A299 RMK A01 T01500089  RH  067%=      5-min Rain = 0
KCH1 111022Z 02026G34KT 15/08 A299 RMK A01 T01500081  RH  063%=      5-min Rain = 0
KCH1 111023Z 02022G28KT 15/08 A299 RMK A01 T01500075  RH  061%=      5-min Rain = 0
KCH1 111024Z 02024G33KT 15/07 A299 RMK A01 T01500071  RH  059%=      5-min Rain = 0
KCH1 111025Z 02024G33KT 15/07 A299 RMK A01 T01500068  RH  058%=      5-min Rain = 0
KCH1 111026Z 02015G27KT 15/07 A299 RMK A01 T01500067  RH  057%=      5-min Rain = 0
KCH1 111027Z 02012G17KT 15/07 A2991 RMK A01 T01490066  RH  058%=      5-min Rain = 0
KCH1 111028Z 02021G32KT 15/07 A299 RMK A01 T01480065  RH  057%=      5-min Rain = 0
KCH1 111029Z 02020KT 15/07 A299 RMK A01 T01480065  RH  057%=      5-min Rain = 0
KCH1 111030Z 02014G20KT 15/07 A299 RMK A01 T01480065  RH  057%=      5-min Rain = 0
KCH1 111031Z 02013G22KT 15/07 A299 RMK A01 T01480065  RH  058%=      5-min Rain = 0
KCH1 111032Z 02014G21KT 15/07 A299 RMK A01 T01470065  RH  058%=      5-min Rain = 0
KCH1 111033Z 03012G19KT 15/06 A299 RMK A01 T01460064  RH  058%=      5-min Rain = 0
KCH1 111034Z 03013G20KT 15/06 A299 RMK A01 T01460063  RH  057%=      5-min Rain = 0
KCH1 111035Z 02019G24KT 15/06 A299 RMK A01 T01450058  RH  056%=      5-min Rain = 0
KCH1 111036Z 03023G32KT 15/05 A299 RMK A01 T01450054  RH  054%=      5-min Rain = 0
KCH1 111037Z 02017G24KT 15/05 A299 RMK A01 T01450052  RH  054%=      5-min Rain = 0
KCH1 111038Z 02022G34KT 15/05 A2991 RMK A01 T01450051  RH  053%=      5-min Rain = 0
KCH1 111039Z 02024G29KT 15/05 A299 RMK A01 T01450046  RH  052%=      5-min Rain = 0
KCH1 111040Z 02023G29KT 15/04 A2991 RMK A01 T01450043  RH  050%=      5-min Rain = 0
KCH1 111041Z 03023G30KT 14/04 A2991 RMK A01 T01440040  RH  050%=      5-min Rain = 0
KCH1 111042Z 02024G31KT 14/04 A2991 RMK A01 T01440038  RH  049%=      5-min Rain = 0
KCH1 111043Z 02026G37KT 14/03 A2991 RMK A01 T01440033  RH  047%=      5-min Rain = 0
KCH1 111044Z 02025G36KT 14/03 A2991 RMK A01 T01430030  RH  046%=      5-min Rain = 0
KCH1 111045Z 02031G37KT 14/03 A2991 RMK A01 T01430027  RH  045%=      5-min Rain = 0
KCH1 111046Z 02026G34KT 14/03 A2992 RMK A01 T01430025  RH  045%=      5-min Rain = 0
KCH1 111047Z 03022G30KT 14/03 A2992 RMK A01 T01430025  RH  045%=      5-min Rain = 0
KCH1 111048Z 02022G28KT 14/03 A2992 RMK A01 T01420025  RH  045%=      5-min Rain = 0
KCH1 111049Z 03024G35KT 14/02 A2992 RMK A01 T01420024  RH  045%=      5-min Rain = 0
KCH1 111050Z 01022G34KT 14/03 A2992 RMK A01 T01420025  RH  045%=      5-min Rain = 0
KCH1 111051Z 02022G28KT 14/03 A2992 RMK A01 T01420025  RH  045%=      5-min Rain = 0
KCH1 111052Z 02022G31KT 14/03 A2992 RMK A01 T01410025  RH  045%=      5-min Rain = 0
KCH1 111053Z 01017G25KT 14/03 A2993 RMK A01 T01410026  RH  046%=      5-min Rain = 0
KCH1 111054Z 02019G27KT 14/03 A2993 RMK A01 T01410026  RH  046%=      5-min Rain = 0
KCH1 111055Z 02012G18KT 14/03 A2993 RMK A01 T01410027  RH  046%=      5-min Rain = 0
KCH1 111056Z 01019G30KT 14/03 A2993 RMK A01 T01400027  RH  046%=      5-min Rain = 0
KCH1 111057Z 02019G31KT 14/03 A2993 RMK A01 T01400028  RH  047%=      5-min Rain = 0
KCH1 111058Z 01020G25KT 14/03 A2993 RMK A01 T01400028  RH  047%=      5-min Rain = 0
KCH1 111059Z 01020G31KT 14/03 A2994 RMK A01 T01400028  RH  047%=      5-min Rain = 0
KCH1 111100Z 01019G24KT 14/03 A2994 RMK A01 T01400029  RH  047%=      5-min Rain = 0
KCH1 111101Z 02021G30KT 14/03 A2994 RMK A01 T01400030  RH  047%=      5-min Rain = 0
KCH1 111102Z 02019G28KT 14/03 A2994 RMK A01 T01390030  RH  047%=      5-min Rain = 0
KCH1 111103Z 01016KT 14/03 A2994 RMK A01 T01400030  RH  048%=      5-min Rain = 0
KCH1 111104Z 01020KT 14/03 A2994 RMK A01 T01390030  RH  048%=      5-min Rain = 0
KCH1 111105Z 01018G24KT 14/03 A2995 RMK A01 T01390030  RH  048%=      5-min Rain = 0
KCH1 111106Z 01020G27KT 14/03 A2995 RMK A01 T01390030  RH  048%=      5-min Rain = 0
KCH1 111107Z 02017G23KT 14/03 A2995 RMK A01 T01380030  RH  048%=      5-min Rain = 0
KCH1 111108Z 02020G30KT 14/03 A2995 RMK A01 T01380030  RH  048%=      5-min Rain = 0
KCH1 111109Z 02016G29KT 14/03 A2995 RMK A01 T01380029  RH  048%=      5-min Rain = 0
KCH1 111110Z 02023G34KT 14/03 A2995 RMK A01 T01380029  RH  048%=      5-min Rain = 0
KCH1 111111Z 03024G32KT 14/03 A2995 RMK A01 T01380028  RH  047%=      5-min Rain = 0
KCH1 111112Z 02027G34KT 14/03 A2994 RMK A01 T01370027  RH  047%=      5-min Rain = 0
KCH1 111113Z 03028G38KT 14/03 A2994 RMK A01 T01370026  RH  047%=      5-min Rain = 0
KCH1 111114Z 03028G37KT 14/03 A2994 RMK A01 T01370025  RH  047%=      5-min Rain = 0
KCH1 111115Z 03026G34KT 14/03 A2994 RMK A01 T01370025  RH  047%=      5-min Rain = 0
KCH1 111116Z 02021G32KT 14/02 A2994 RMK A01 T01370024  RH  047%=      5-min Rain = 0
KCH1 111117Z 02021G33KT 14/02 A2994 RMK A01 T01360024  RH  047%=      5-min Rain = 0
KCH1 111118Z 03019G24KT 14/02 A2994 RMK A01 T01360023  RH  046%=      5-min Rain = 0
KCH1 111119Z 03019G26KT 14/02 A2994 RMK A01 T01350023  RH  047%=      5-min Rain = 0
KCH1 111120Z 02025G34KT 14/02 A2994 RMK A01 T01350023  RH  046%=      5-min Rain = 0
KCH1 111121Z 02023G30KT 14/02 A2994 RMK A01 T01350021  RH  046%=      5-min Rain = 0
KCH1 111122Z 03020G27KT 14/02 A2994 RMK A01 T01350021  RH  046%=      5-min Rain = 0
KCH1 111123Z 03019G26KT 14/02 A2994 RMK A01 T01350021  RH  046%=      5-min Rain = 0
KCH1 111124Z 02022G27KT 13/02 A2994 RMK A01 T01340021  RH  046%=      5-min Rain = 0
KCH1 111125Z 03027G35KT 13/02 A2994 RMK A01 T01340021  RH  046%=      5-min Rain = 0
KCH1 111126Z 03024G31KT 13/02 A2994 RMK A01 T01340020  RH  046%=      5-min Rain = 0
KCH1 111127Z 03024G34KT 13/02 A2994 RMK A01 T01340020  RH  046%=      5-min Rain = 0
KCH1 111128Z 03026G32KT 13/02 A2994 RMK A01 T01340020  RH  046%=      5-min Rain = 0
KCH1 111129Z 03027G34KT 13/02 A2994 RMK A01 T01340019  RH  046%=      5-min Rain = 0
KCH1 111130Z 03028G39KT 13/02 A2994 RMK A01 T01340019  RH  046%=      5-min Rain = 0
KCH1 111131Z 03024G33KT 13/02 A2994 RMK A01 T01330018  RH  046%=      5-min Rain = 0
KCH1 111132Z 03026G39KT 13/02 A2994 RMK A01 T01330018  RH  045%=      5-min Rain = 0
KCH1 111133Z 03024G32KT 13/02 A2994 RMK A01 T01330018  RH  045%=      5-min Rain = 0
KCH1 111134Z 03023G28KT 13/02 A2995 RMK A01 T01330018  RH  045%=      5-min Rain = 0
KCH1 111135Z 03025G32KT 13/02 A2995 RMK A01 T01330017  RH  045%=      5-min Rain = 0
KCH1 111136Z 03026G33KT 13/02 A2995 RMK A01 T01320017  RH  045%=      5-min Rain = 0
KCH1 111137Z 03023G30KT 13/02 A2995 RMK A01 T01330017  RH  045%=      5-min Rain = 0
KCH1 111138Z 03019G29KT 13/02 A2995 RMK A01 T01320016  RH  045%=      5-min Rain = 0
KCH1 111139Z 03018G24KT 13/02 A2995 RMK A01 T01320016  RH  045%=      5-min Rain = 0
KCH1 111140Z 04025G31KT 13/02 A2995 RMK A01 T01310015  RH  045%=      5-min Rain = 0
KCH1 111141Z 03031KT 13/02 A2995 RMK A01 T01310015  RH  045%=      5-min Rain = 0
KCH1 111142Z 03023G29KT 13/01 A2995 RMK A01 T01310014  RH  045%=      5-min Rain = 0
KCH1 111143Z 03022G31KT 13/01 A2995 RMK A01 T01310014  RH  045%=      5-min Rain = 0
KCH1 111144Z 04024G38KT 13/01 A2995 RMK A01 T01310014  RH  045%=      5-min Rain = 0
KCH1 111145Z 03025G32KT 13/01 A2995 RMK A01 T01310013  RH  045%=      5-min Rain = 0
KCH1 111146Z 03019G37KT 13/01 A2995 RMK A01 T01310013  RH  045%=      5-min Rain = 0
KCH1 111147Z 03026G38KT 13/01 A2995 RMK A01 T01300013  RH  045%=      5-min Rain = 0
KCH1 111148Z 03031G37KT 13/01 A2995 RMK A01 T01300011  RH  044%=      5-min Rain = 0
KCH1 111149Z 04028G37KT 13/01 A2996 RMK A01 T01300011  RH  044%=      5-min Rain = 0
KCH1 111150Z 04023G30KT 13/01 A2996 RMK A01 T01310011  RH  044%=      5-min Rain = 0
KCH1 111151Z 03023G32KT 13/01 A2996 RMK A01 T01300011  RH  044%=      5-min Rain = 0
KCH1 111152Z 03023G29KT 13/01 A2996 RMK A01 T01300011  RH  044%=      5-min Rain = 0
KCH1 111153Z 03024G39KT 13/01 A2996 RMK A01 T01300010  RH  044%=      5-min Rain = 0
KCH1 111154Z 04020G27KT 13/01 A2996 RMK A01 T01300010  RH  044%=      5-min Rain = 0
KCH1 111155Z 03026G32KT 13/01 A2996 RMK A01 T01300010  RH  044%=      5-min Rain = 0
KCH1 111156Z 03024G31KT 13/01 A2996 RMK A01 T01300009  RH  044%=      5-min Rain = 0
KCH1 111157Z 04024G32KT 13/01 A2997 RMK A01 T01300009  RH  044%=      5-min Rain = 0
KCH1 111158Z 04026G33KT 13/01 A2997 RMK A01 T01300009  RH  044%=      5-min Rain = 0
KCH1 111159Z 03025G36KT 13/01 A2997 RMK A01 T01300009  RH  043%=      5-min Rain = 0
KCH1 111200Z 03020G28KT 13/01 A2997 RMK A01 T01300008  RH  043%=      5-min Rain = 0
KCH1 111201Z 03018G23KT 13/01 A2997 RMK A01 T01300008  RH  043%=      5-min Rain = 0
KCH1 111202Z 03023G29KT 13/01 A2996 RMK A01 T01300009  RH  044%=      5-min Rain = 0
KCH1 111203Z 03022G32KT 13/01 A2997 RMK A01 T01300008  RH  043%=      5-min Rain = 0
KCH1 111204Z 04030G39KT 13/01 A2997 RMK A01 T01300008  RH  043%=      5-min Rain = 0
KCH1 111205Z 02023G32KT 13/01 A2997 RMK A01 T01300008  RH  043%=      5-min Rain = 0
KCH1 111206Z 03027G35KT 13/01 A2997 RMK A01 T01300008  RH  043%=      5-min Rain = 0
KCH1 111207Z 03027G36KT 13/01 A2997 RMK A01 T01300007  RH  043%=      5-min Rain = 0
KCH1 111208Z 03022G34KT 13/01 A2997 RMK A01 T01300007  RH  043%=      5-min Rain = 0
KCH1 111209Z 04019G27KT 13/01 A2997 RMK A01 T01300008  RH  043%=      5-min Rain = 0
KCH1 111210Z 03025G30KT 13/01 A2997 RMK A01 T01300008  RH  043%=      5-min Rain = 0
KCH1 111211Z 03028G35KT 13/01 A2997 RMK A01 T01300007  RH  043%=      5-min Rain = 0
KCH1 111212Z 03031G41KT 13/01 A2997 RMK A01 T01300007  RH  043%=      5-min Rain = 0
KCH1 111213Z 03029G37KT 13/01 A2997 RMK A01 T01300007  RH  043%=      5-min Rain = 0
KCH1 111214Z 03024G31KT 13/01 A2997 RMK A01 T01300006  RH  043%=      5-min Rain = 0
KCH1 111215Z 04026G34KT 13/01 A2997 RMK A01 T01300007  RH  043%=      5-min Rain = 0
KCH1 111216Z 03016G26KT 13/01 A2997 RMK A01 T01300007  RH  043%=      5-min Rain = 0
KCH1 111217Z 04026G33KT 13/01 A2998 RMK A01 T01300007  RH  043%=      5-min Rain = 0
KCH1 111218Z 02025G30KT 13/01 A2998 RMK A01 T01300007  RH  043%=      5-min Rain = 0
KCH1 111219Z 04025G34KT 13/01 A2998 RMK A01 T01300006  RH  043%=      5-min Rain = 0
KCH1 111220Z 04021G32KT 13/01 A2998 RMK A01 T01300006  RH  043%=      5-min Rain = 0
KCH1 111221Z 03021G28KT 13/01 A2998 RMK A01 T01300006  RH  043%=      5-min Rain = 0
KCH1 111222Z 02020G33KT 13/01 A2998 RMK A01 T01300005  RH  043%=      5-min Rain = 0
KCH1 111223Z 03023G33KT 13/01 A2998 RMK A01 T01300005  RH  042%=      5-min Rain = 0
KCH1 111224Z 03031G41KT 13/01 A2998 RMK A01 T01300005  RH  042%=      5-min Rain = 0
KCH1 111225Z 03022G28KT 13/01 A2998 RMK A01 T01300005  RH  042%=      5-min Rain = 0
KCH1 111226Z 04020G25KT 13/01 A2998 RMK A01 T01300005  RH  042%=      5-min Rain = 0
KCH1 111227Z 03025G34KT 13/01 A2998 RMK A01 T01300005  RH  042%=      5-min Rain = 0
KCH1 111228Z 04023G30KT 13/01 A2998 RMK A01 T01300005  RH  042%=      5-min Rain = 0
KCH1 111229Z 04027G36KT 13/01 A2998 RMK A01 T01300005  RH  042%=      5-min Rain = 0
KCH1 111230Z 04027G32KT 13/01 A2998 RMK A01 T01300005  RH  042%=      5-min Rain = 0
KCH1 111231Z 04018G26KT 13/00 A2998 RMK A01 T01300004  RH  042%=      5-min Rain = 0
KCH1 111232Z 04023G34KT 13/01 A2998 RMK A01 T01300005  RH  042%=      5-min Rain = 0
KCH1 111233Z 04021G29KT 13/01 A2998 RMK A01 T01300005  RH  042%=      5-min Rain = 0
KCH1 111234Z 03020G27KT 13/01 A2998 RMK A01 T01300005  RH  042%=      5-min Rain = 0
KCH1 111235Z 03020G29KT 13/00 A2998 RMK A01 T01290004  RH  042%=      5-min Rain = 0
KCH1 111236Z 04024G35KT 13/00 A2998 RMK A01 T01290004  RH  042%=      5-min Rain = 0
KCH1 111237Z 03026G32KT 13/00 A2999 RMK A01 T01290004  RH  042%=      5-min Rain = 0
KCH1 111238Z 03023G33KT 13/00 A2999 RMK A01 T01300004  RH  042%=      5-min Rain = 0
KCH1 111239Z 04028G38KT 13/00 A2999 RMK A01 T01300004  RH  042%=      5-min Rain = 0
KCH1 111240Z 04029G35KT 13/00 A2999 RMK A01 T01300004  RH  042%=      5-min Rain = 0
KCH1 111241Z 04026G35KT 13/00 A2999 RMK A01 T01300003  RH  042%=      5-min Rain = 0
KCH1 111242Z 04022G28KT 13/00 A2999 RMK A01 T01300004  RH  042%=      5-min Rain = 0
KCH1 111243Z 04026G32KT 13/00 A2999 RMK A01 T01300004  RH  042%=      5-min Rain = 0
KCH1 111244Z 03026G37KT 13/00 A2999 RMK A01 T01300003  RH  042%=      5-min Rain = 0
KCH1 111245Z 04023G28KT 13/00 A30 RMK A01 T01300003  RH  042%=      5-min Rain = 0
KCH1 111246Z 03021G27KT 13/00 A30 RMK A01 T01300003  RH  042%=      5-min Rain = 0
KCH1 111247Z 03018G24KT 13/00 A30 RMK A01 T01300003  RH  042%=      5-min Rain = 0
KCH1 111248Z 04023G28KT 13/00 A30 RMK A01 T01300003  RH  042%=      5-min Rain = 0
KCH1 111249Z 04026G32KT 13/00 A30 RMK A01 T01300003  RH  042%=      5-min Rain = 0
KCH1 111250Z 04025G32KT 13/00 A30 RMK A01 T01300003  RH  042%=      5-min Rain = 0
KCH1 111251Z 04023G30KT 13/00 A30 RMK A01 T01300003  RH  042%=      5-min Rain = 0
KCH1 111252Z 04018G24KT 13/00 A30 RMK A01 T01300003  RH  042%=      5-min Rain = 0
KCH1 111253Z 03018KT 13/00 A30 RMK A01 T01300003  RH  042%=      5-min Rain = 0
KCH1 111254Z 03017G26KT 13/00 A30 RMK A01 T01300003  RH  042%=      5-min Rain = 0
KCH1 111255Z 03018G31KT 13/00 A30 RMK A01 T01300003  RH  042%=      5-min Rain = 0
KCH1 111256Z 04020G27KT 13/00 A30 RMK A01 T01300003  RH  042%=      5-min Rain = 0
KCH1 111257Z 03019G25KT 13/00 A30 RMK A01 T01300003  RH  042%=      5-min Rain = 0
KCH1 111258Z 04018KT 13/00 A30 RMK A01 T01290003  RH  042%=      5-min Rain = 0
KCH1 111259Z 04017G22KT 13/00 A3001 RMK A01 T01290003  RH  042%=      5-min Rain = 0
KCH1 111300Z 04022G27KT 13/00 A3001 RMK A01 T01290003  RH  042%=      5-min Rain = 0
KCH1 111301Z 04018KT 13/00 A3001 RMK A01 T01290002  RH  042%=      5-min Rain = 0
KCH1 111302Z 03021G31KT 13/00 A3001 RMK A01 T01290002  RH  042%=      5-min Rain = 0
KCH1 111303Z 04020G28KT 13/00 A3001 RMK A01 T01290002  RH  042%=      5-min Rain = 0
KCH1 111304Z 04017G24KT 13/00 A3001 RMK A01 T01290002  RH  042%=      5-min Rain = 0
KCH1 111305Z 04021G31KT 13/00 A3002 RMK A01 T01290002  RH  042%=      5-min Rain = 0
KCH1 111306Z 03027G33KT 13/00 A3002 RMK A01 T01290002  RH  041%=      5-min Rain = 0
KCH1 111307Z 03024G30KT 13/00 A3002 RMK A01 T01290001  RH  041%=      5-min Rain = 0
KCH1 111308Z 03020G28KT 13/00 A3002 RMK A01 T01300001  RH  041%=      5-min Rain = 0
KCH1 111309Z 03017KT 13/00 A3003 RMK A01 T01300002  RH  041%=      5-min Rain = 0
KCH1 111310Z 04021G27KT 13/00 A3003 RMK A01 T01300001  RH  041%=      5-min Rain = 0
KCH1 111311Z 04016G21KT 13/00 A3003 RMK A01 T01300002  RH  041%=      5-min Rain = 0
KCH1 111312Z 03017G25KT 13/00 A3003 RMK A01 T01290001  RH  041%=      5-min Rain = 0
KCH1 111313Z 03019KT 13/00 A3003 RMK A01 T01290002  RH  042%=      5-min Rain = 0
KCH1 111314Z 03019G24KT 13/00 A3003 RMK A01 T01290002  RH  042%=      5-min Rain = 0
KCH1 111315Z 03020G28KT 13/00 A3003 RMK A01 T01290001  RH  041%=      5-min Rain = 0
KCH1 111316Z 03015G21KT 13/00 A3003 RMK A01 T01290001  RH  041%=      5-min Rain = 0
KCH1 111317Z 04021KT 13/00 A3004 RMK A01 T01290001  RH  041%=      5-min Rain = 0
KCH1 111318Z 02021KT 13/00 A3004 RMK A01 T01290000  RH  041%=      5-min Rain = 0
KCH1 111319Z 03015G21KT 13/00 A3004 RMK A01 T01290000  RH  041%=      5-min Rain = 0
KCH1 111320Z 03022G32KT 13/00 A3004 RMK A01 T01290000  RH  041%=      5-min Rain = 0
KCH1 111321Z 03020G26KT 13/M00 A3004 RMK A01 T01291001  RH  041%=      5-min Rain = 0
KCH1 111322Z 04017G23KT 13/M00 A3004 RMK A01 T01291001  RH  041%=      5-min Rain = 0
KCH1 111323Z 02015G24KT 13/M00 A3004 RMK A01 T01291001  RH  041%=      5-min Rain = 0
KCH1 111324Z 03016G25KT 13/M00 A3004 RMK A01 T01291001  RH  041%=      5-min Rain = 0
KCH1 111325Z 03017G22KT 13/M00 A3004 RMK A01 T01291002  RH  041%=      5-min Rain = 0
KCH1 111326Z 03021G26KT 13/M00 A3004 RMK A01 T01291002  RH  041%=      5-min Rain = 0
KCH1 111327Z 04018G24KT 13/M00 A3004 RMK A01 T01291003  RH  040%=      5-min Rain = 0
KCH1 111328Z 03016G25KT 13/M00 A3005 RMK A01 T01291003  RH  040%=      5-min Rain = 0
KCH1 111329Z 03019G27KT 13/M00 A3005 RMK A01 T01291004  RH  040%=      5-min Rain = 0
KCH1 111330Z 02017G22KT 13/M01 A3005 RMK A01 T01291005  RH  040%=      5-min Rain = 0
KCH1 111331Z 02016G22KT 13/M01 A3005 RMK A01 T01291005  RH  040%=      5-min Rain = 0
KCH1 111332Z 03012G18KT 13/M01 A3005 RMK A01 T01291005  RH  040%=      5-min Rain = 0
KCH1 111333Z 02013KT 13/M01 A3005 RMK A01 T01291005  RH  040%=      5-min Rain = 0
KCH1 111334Z 03014G20KT 13/M01 A3006 RMK A01 T01291005  RH  040%=      5-min Rain = 0
KCH1 111335Z 03011KT 13/M01 A3006 RMK A01 T01291005  RH  040%=      5-min Rain = 0
KCH1 111336Z 02012KT 13/M01 A3006 RMK A01 T01291005  RH  040%=      5-min Rain = 0
KCH1 111337Z 03013G18KT 13/M01 A3006 RMK A01 T01291005  RH  040%=      5-min Rain = 0
KCH1 111338Z 03012KT 13/M01 A3006 RMK A01 T01291005  RH  040%=      5-min Rain = 0
KCH1 111339Z 04013G20KT 13/M01 A3006 RMK A01 T01291006  RH  039%=      5-min Rain = 0
KCH1 111340Z 03016G24KT 13/M01 A3006 RMK A01 T01291007  RH  039%=      5-min Rain = 0
KCH1 111341Z 03011KT 13/M01 A3006 RMK A01 T01291007  RH  039%=      5-min Rain = 0
KCH1 111342Z 02014G20KT 13/M01 A3007 RMK A01 T01301006  RH  039%=      5-min Rain = 0
KCH1 111343Z 03014KT 13/M01 A3007 RMK A01 T01291007  RH  039%=      5-min Rain = 0
KCH1 111344Z 02012G19KT 13/M01 A3007 RMK A01 T01291007  RH  039%=      5-min Rain = 0
KCH1 111345Z 02010G15KT 13/M01 A3007 RMK A01 T01291007  RH  039%=      5-min Rain = 0
KCH1 111346Z 02013KT 13/M01 A3007 RMK A01 T01291006  RH  039%=      5-min Rain = 0
KCH1 111347Z 02016G22KT 13/M01 A3007 RMK A01 T01291006  RH  039%=      5-min Rain = 0
KCH1 111348Z 02010KT 13/M01 A3007 RMK A01 T01301006  RH  039%=      5-min Rain = 0
KCH1 111349Z 02011KT 13/M01 A3007 RMK A01 T01291005  RH  039%=      5-min Rain = 0
KCH1 111350Z 03011G16KT 13/M01 A3007 RMK A01 T01291005  RH  039%=      5-min Rain = 0
KCH1 111351Z 00013G23KT 13/M01 A3007 RMK A01 T01291005  RH  040%=      5-min Rain = 0
KCH1 111352Z 02014G21KT 13/M01 A3007 RMK A01 T01291005  RH  040%=      5-min Rain = 0
KCH1 111353Z 02011KT 13/M00 A3008 RMK A01 T01291004  RH  040%=      5-min Rain = 0
KCH1 111354Z 02012G17KT 13/M00 A3008 RMK A01 T01291004  RH  040%=      5-min Rain = 0
KCH1 111355Z 01012G19KT 13/M01 A3008 RMK A01 T01291005  RH  040%=      5-min Rain = 0
KCH1 111356Z 01014G23KT 13/M01 A3008 RMK A01 T01291005  RH  040%=      5-min Rain = 0
KCH1 111357Z 02018KT 13/M01 A3008 RMK A01 T01291006  RH  039%=      5-min Rain = 0
KCH1 111358Z 01011KT 13/M01 A3008 RMK A01 T01291006  RH  039%=      5-min Rain = 0
KCH1 111359Z 02012G18KT 13/M01 A3008 RMK A01 T01291005  RH  039%=      5-min Rain = 0
KCH1 111400Z 02015G20KT 13/M01 A3009 RMK A01 T01291006  RH  039%=      5-min Rain = 0
KCH1 111401Z 00016G24KT 13/M01 A3009 RMK A01 T01291007  RH  039%=      5-min Rain = 0
KCH1 111402Z 03014G20KT 13/M01 A3009 RMK A01 T01291008  RH  039%=      5-min Rain = 0
KCH1 111403Z 03012KT 13/M01 A3009 RMK A01 T01291007  RH  039%=      5-min Rain = 0
KCH1 111404Z 03012KT 13/M01 A3009 RMK A01 T01291007  RH  039%=      5-min Rain = 0
KCH1 111405Z 03012G17KT 13/M01 A3009 RMK A01 T01291007  RH  039%=      5-min Rain = 0
KCH1 111406Z 02010KT 13/M01 A3009 RMK A01 T01291008  RH  039%=      5-min Rain = 0
KCH1 111407Z 03011G17KT 13/M01 A3009 RMK A01 T01291008  RH  039%=      5-min Rain = 0
KCH1 111408Z 03016G21KT 13/M01 A301 RMK A01 T01291009  RH  038%=      5-min Rain = 0
KCH1 111409Z 02014G19KT 13/M01 A301 RMK A01 T01291010  RH  038%=      5-min Rain = 0
KCH1 111410Z 02009G15KT 13/M01 A301 RMK A01 T01291010  RH  038%=      5-min Rain = 0
KCH1 111411Z 01010G16KT 13/M01 A301 RMK A01 T01291009  RH  038%=      5-min Rain = 0
KCH1 111412Z 02010G17KT 13/M01 A301 RMK A01 T01291010  RH  038%=      5-min Rain = 0
KCH1 111413Z 03013KT 13/M01 A301 RMK A01 T01291010  RH  038%=      5-min Rain = 0
KCH1 111414Z 02014KT 13/M01 A301 RMK A01 T01291010  RH  038%=      5-min Rain = 0
KCH1 111415Z 01014G19KT 13/M01 A301 RMK A01 T01291011  RH  038%=      5-min Rain = 0
KCH1 111416Z 01018G27KT 13/M01 A301 RMK A01 T01291011  RH  038%=      5-min Rain = 0
KCH1 111417Z 01018G24KT 13/M01 A301 RMK A01 T01291011  RH  038%=      5-min Rain = 0
KCH1 111418Z 01018G23KT 13/M01 A301 RMK A01 T01281011  RH  038%=      5-min Rain = 0
KCH1 111419Z 01015G23KT 13/M01 A301 RMK A01 T01281010  RH  038%=      5-min Rain = 0
KCH1 111420Z 02018G24KT 13/M01 A301 RMK A01 T01281010  RH  038%=      5-min Rain = 0
KCH1 111421Z 01021G28KT 13/M01 A301 RMK A01 T01281010  RH  038%=      5-min Rain = 0
KCH1 111422Z 01020G26KT 13/M01 A301 RMK A01 T01281011  RH  038%=      5-min Rain = 0
KCH1 111423Z 02015G21KT 13/M01 A301 RMK A01 T01281011  RH  038%=      5-min Rain = 0
KCH1 111424Z 03019G24KT 13/M01 A3011 RMK A01 T01271011  RH  038%=      5-min Rain = 0
KCH1 111425Z 03016KT 13/M01 A3011 RMK A01 T01281010  RH  038%=      5-min Rain = 0
KCH1 111426Z 04016G22KT 13/M01 A3011 RMK A01 T01281011  RH  038%=      5-min Rain = 0
KCH1 111427Z 02016G24KT 13/M01 A3011 RMK A01 T01281010  RH  038%=      5-min Rain = 0
KCH1 111428Z 02019G24KT 13/M01 A3011 RMK A01 T01281011  RH  038%=      5-min Rain = 0
KCH1 111429Z 01019KT 13/M01 A3011 RMK A01 T01281012  RH  038%=      5-min Rain = 0
KCH1 111430Z 03017G24KT 13/M01 A3011 RMK A01 T01271012  RH  038%=      5-min Rain = 0
KCH1 111431Z 02014G20KT 13/M01 A3011 RMK A01 T01271011  RH  038%=      5-min Rain = 0
KCH1 111432Z 03012G17KT 13/M01 A3011 RMK A01 T01271011  RH  038%=      5-min Rain = 0
KCH1 111433Z 01013G18KT 13/M01 A3012 RMK A01 T01281010  RH  039%=      5-min Rain = 0
KCH1 111434Z 02019G26KT 13/M01 A3011 RMK A01 T01281011  RH  038%=      5-min Rain = 0
KCH1 111435Z 02015G20KT 13/M01 A3012 RMK A01 T01281013  RH  038%=      5-min Rain = 0
KCH1 111436Z 03015KT 13/M01 A3012 RMK A01 T01281013  RH  038%=      5-min Rain = 0
KCH1 111437Z 01011G18KT 13/M01 A3012 RMK A01 T01281012  RH  038%=      5-min Rain = 0
KCH1 111438Z 02014G20KT 13/M01 A3012 RMK A01 T01281013  RH  037%=      5-min Rain = 0
KCH1 111439Z 01015G21KT 13/M01 A3012 RMK A01 T01281014  RH  037%=      5-min Rain = 0
KCH1 111440Z 02012G17KT 13/M01 A3013 RMK A01 T01281014  RH  037%=      5-min Rain = 0
KCH1 111441Z 02016G28KT 13/M01 A3013 RMK A01 T01281014  RH  037%=      5-min Rain = 0
KCH1 111442Z 02020G26KT 13/M02 A3012 RMK A01 T01271016  RH  037%=      5-min Rain = 0
KCH1 111443Z 03018G23KT 13/M02 A3013 RMK A01 T01261017  RH  037%=      5-min Rain = 0
KCH1 111444Z 01018G30KT 13/M02 A3012 RMK A01 T01261016  RH  037%=      5-min Rain = 0
KCH1 111445Z 02018G24KT 13/M02 A3012 RMK A01 T01261017  RH  037%=      5-min Rain = 0
KCH1 111446Z 02015KT 13/M02 A3013 RMK A01 T01261016  RH  037%=      5-min Rain = 0
KCH1 111447Z 02016G22KT 13/M02 A3013 RMK A01 T01261016  RH  037%=      5-min Rain = 0
KCH1 111448Z 02015G22KT 13/M02 A3013 RMK A01 T01261016  RH  037%=      5-min Rain = 0
KCH1 111449Z 03019KT 13/M02 A3013 RMK A01 T01261016  RH  037%=      5-min Rain = 0
KCH1 111450Z 02015KT 13/M02 A3013 RMK A01 T01261016  RH  037%=      5-min Rain = 0
KCH1 111451Z 02012G17KT 13/M02 A3013 RMK A01 T01251016  RH  037%=      5-min Rain = 0
KCH1 111452Z 02015G22KT 13/M02 A3014 RMK A01 T01251016  RH  037%=      5-min Rain = 0
KCH1 111453Z 02017KT 13/M02 A3014 RMK A01 T01251017  RH  037%=      5-min Rain = 0
KCH1 111454Z 03014G19KT 13/M02 A3014 RMK A01 T01251017  RH  037%=      5-min Rain = 0
KCH1 111455Z 03011KT 13/M02 A3014 RMK A01 T01251016  RH  038%=      5-min Rain = 0
KCH1 111456Z 02014G21KT 13/M02 A3014 RMK A01 T01251015  RH  038%=      5-min Rain = 0
KCH1 111457Z 03013G19KT 13/M02 A3014 RMK A01 T01251016  RH  038%=      5-min Rain = 0
KCH1 111458Z 01012KT 12/M02 A3014 RMK A01 T01241016  RH  038%=      5-min Rain = 0
KCH1 111459Z 02016G23KT 13/M02 A3014 RMK A01 T01251016  RH  038%=      5-min Rain = 0
KCH1 111500Z 03018G24KT 12/M02 A3015 RMK A01 T01241016  RH  038%=      5-min Rain = 0
KCH1 111501Z 03016G23KT 12/M02 A3015 RMK A01 T01241016  RH  038%=      5-min Rain = 0
KCH1 111502Z 03013KT 12/M02 A3015 RMK A01 T01231016  RH  038%=      5-min Rain = 0
KCH1 111503Z 03012G17KT 12/M02 A3015 RMK A01 T01231016  RH  038%=      5-min Rain = 0
KCH1 111504Z 02012KT 12/M02 A3015 RMK A01 T01231016  RH  038%=      5-min Rain = 0
KCH1 111505Z 02015G23KT 12/M02 A3015 RMK A01 T01231016  RH  038%=      5-min Rain = 0
KCH1 111506Z 03019G24KT 12/M02 A3015 RMK A01 T01231016  RH  038%=      5-min Rain = 0
KCH1 111507Z 02019KT 12/M02 A3015 RMK A01 T01221016  RH  038%=      5-min Rain = 0
KCH1 111508Z 02015KT 12/M02 A3015 RMK A01 T01221016  RH  038%=      5-min Rain = 0
KCH1 111509Z 03013G19KT 12/M02 A3015 RMK A01 T01221015  RH  039%=      5-min Rain = 0
KCH1 111510Z 02010G15KT 12/M02 A3015 RMK A01 T01221015  RH  039%=      5-min Rain = 0
KCH1 111511Z 02009G14KT 12/M01 A3016 RMK A01 T01221014  RH  039%=      5-min Rain = 0
KCH1 111512Z 03012G21KT 12/M02 A3016 RMK A01 T01221015  RH  039%=      5-min Rain = 0
KCH1 111513Z 02014G19KT 12/M02 A3016 RMK A01 T01221015  RH  039%=      5-min Rain = 0
KCH1 111514Z 02015G20KT 12/M02 A3016 RMK A01 T01221015  RH  039%=      5-min Rain = 0
KCH1 111515Z 03015G21KT 12/M02 A3016 RMK A01 T01211015  RH  039%=      5-min Rain = 0
KCH1 111516Z 02017G22KT 12/M02 A3015 RMK A01 T01211016  RH  039%=      5-min Rain = 0
KCH1 111517Z 03013G19KT 12/M02 A3016 RMK A01 T01211016  RH  039%=      5-min Rain = 0
KCH1 111518Z 04016KT 12/M02 A3016 RMK A01 T01211015  RH  039%=      5-min Rain = 0
KCH1 111519Z 03017KT 12/M02 A3016 RMK A01 T01211016  RH  039%=      5-min Rain = 0
KCH1 111520Z 03017G22KT 12/M02 A3016 RMK A01 T01201017  RH  039%=      5-min Rain = 0
KCH1 111521Z 04018G24KT 12/M02 A3016 RMK A01 T01201017  RH  038%=      5-min Rain = 0
KCH1 111522Z 02015KT 12/M02 A3016 RMK A01 T01201017  RH  038%=      5-min Rain = 0
KCH1 111523Z 03017KT 12/M02 A3016 RMK A01 T01201018  RH  038%=      5-min Rain = 0
KCH1 111524Z 03015G21KT 12/M02 A3016 RMK A01 T01201018  RH  038%=      5-min Rain = 0
KCH1 111525Z 02018KT 12/M02 A3016 RMK A01 T01201017  RH  038%=      5-min Rain = 0
KCH1 111526Z 03015KT 12/M02 A3016 RMK A01 T01211018  RH  038%=      5-min Rain = 0
KCH1 111527Z 02012KT 12/M02 A3016 RMK A01 T01211017  RH  038%=      5-min Rain = 0
KCH1 111528Z 01014G21KT 12/M02 A3016 RMK A01 T01211016  RH  038%=      5-min Rain = 0
KCH1 111529Z 02018G27KT 12/M02 A3016 RMK A01 T01221017  RH  038%=      5-min Rain = 0
KCH1 111530Z 02015G24KT 12/M02 A3016 RMK A01 T01221017  RH  038%=      5-min Rain = 0
KCH1 111531Z 03016KT 12/M02 A3016 RMK A01 T01221017  RH  038%=      5-min Rain = 0
KCH1 111532Z 03012G20KT 12/M02 A3016 RMK A01 T01221015  RH  038%=      5-min Rain = 0
KCH1 111533Z 04015G22KT 12/M02 A3016 RMK A01 T01231015  RH  038%=      5-min Rain = 0
KCH1 111534Z 03015G21KT 12/M02 A3016 RMK A01 T01241015  RH  038%=      5-min Rain = 0
KCH1 111535Z 01013G19KT 13/M02 A3016 RMK A01 T01251015  RH  038%=      5-min Rain = 0
KCH1 111536Z 01014G21KT 13/M02 A3016 RMK A01 T01251016  RH  038%=      5-min Rain = 0
KCH1 111537Z 02012G18KT 12/M02 A3016 RMK A01 T01241015  RH  038%=      5-min Rain = 0
KCH1 111538Z 02015G20KT 13/M02 A3016 RMK A01 T01251015  RH  038%=      5-min Rain = 0
KCH1 111539Z 02017G23KT 13/M01 A3017 RMK A01 T01251014  RH  038%=      5-min Rain = 0
KCH1 111540Z 02020G28KT 13/M01 A3017 RMK A01 T01251014  RH  038%=      5-min Rain = 0
KCH1 111541Z 02017G23KT 12/M01 A3017 RMK A01 T01241014  RH  038%=      5-min Rain = 0
KCH1 111542Z 03016KT 12/M01 A3017 RMK A01 T01241014  RH  038%=      5-min Rain = 0
KCH1 111543Z 02015G20KT 12/M01 A3017 RMK A01 T01241014  RH  038%=      5-min Rain = 0
KCH1 111544Z 03017KT 13/M01 A3017 RMK A01 T01251013  RH  038%=      5-min Rain = 0
KCH1 111545Z 02017KT 13/M01 A3017 RMK A01 T01261014  RH  038%=      5-min Rain = 0
KCH1 111546Z 02013G19KT 13/M01 A3017 RMK A01 T01261013  RH  038%=      5-min Rain = 0
KCH1 111547Z 02013G19KT 13/M01 A3018 RMK A01 T01271012  RH  038%=      5-min Rain = 0
KCH1 111548Z 03015KT 13/M01 A3018 RMK A01 T01281013  RH  038%=      5-min Rain = 0
KCH1 111549Z 03013KT 13/M01 A3018 RMK A01 T01281012  RH  038%=      5-min Rain = 0
KCH1 111550Z 04013G19KT 13/M01 A3018 RMK A01 T01291011  RH  038%=      5-min Rain = 0
KCH1 111551Z 03016KT 13/M01 A3018 RMK A01 T01301012  RH  037%=      5-min Rain = 0
KCH1 111552Z 03014G19KT 13/M01 A3018 RMK A01 T01311013  RH  037%=      5-min Rain = 0
KCH1 111553Z 02010G17KT 13/M01 A3018 RMK A01 T01311011  RH  037%=      5-min Rain = 0
KCH1 111554Z 01017KT 13/M01 A3018 RMK A01 T01321011  RH  037%=      5-min Rain = 0
KCH1 111555Z 03017G22KT 13/M01 A3018 RMK A01 T01321012  RH  037%=      5-min Rain = 0
KCH1 111556Z 04015G22KT 13/M01 A3018 RMK A01 T01321011  RH  037%=      5-min Rain = 0
KCH1 111557Z 02013G19KT 13/M01 A3018 RMK A01 T01331009  RH  038%=      5-min Rain = 0
KCH1 111558Z 02019G30KT 13/M01 A3018 RMK A01 T01341010  RH  037%=      5-min Rain = 0
KCH1 111559Z 02023G30KT 13/M01 A3019 RMK A01 T01341013  RH  036%=      5-min Rain = 0
KCH1 111600Z 02018G25KT 13/M02 A3019 RMK A01 T01321016  RH  036%=      5-min Rain = 0
KCH1 111601Z 03022G32KT 13/M02 A3019 RMK A01 T01311016  RH  036%=      5-min Rain = 0
KCH1 111602Z 03019G27KT 13/M02 A3019 RMK A01 T01311018  RH  036%=      5-min Rain = 0
KCH1 111603Z 02023G31KT 13/M02 A3019 RMK A01 T01321018  RH  036%=      5-min Rain = 0
KCH1 111604Z 03021G26KT 13/M02 A3019 RMK A01 T01321017  RH  036%=      5-min Rain = 0
KCH1 111605Z 04020G26KT 13/M02 A3019 RMK A01 T01321016  RH  036%=      5-min Rain = 0
KCH1 111606Z 03017KT 13/M02 A3019 RMK A01 T01331017  RH  035%=      5-min Rain = 0
KCH1 111607Z 03015KT 13/M02 A3019 RMK A01 T01331016  RH  036%=      5-min Rain = 0
KCH1 111608Z 04012KT 13/M01 A3019 RMK A01 T01331014  RH  036%=      5-min Rain = 0
KCH1 111609Z 03014G21KT 14/M01 A3019 RMK A01 T01351011  RH  036%=      5-min Rain = 0
KCH1 111610Z 05020G25KT 14/M01 A3019 RMK A01 T01371011  RH  036%=      5-min Rain = 0
KCH1 111611Z 03015G26KT 14/M01 A3019 RMK A01 T01351010  RH  037%=      5-min Rain = 0
KCH1 111612Z 02019G25KT 14/M01 A3019 RMK A01 T01361013  RH  036%=      5-min Rain = 0
KCH1 111613Z 02016G25KT 13/M01 A3019 RMK A01 T01341014  RH  036%=      5-min Rain = 0
KCH1 111614Z 02015KT 13/M01 A302 RMK A01 T01341011  RH  037%=      5-min Rain = 0
KCH1 111615Z 02018G24KT 14/M01 A302 RMK A01 T01351011  RH  036%=      5-min Rain = 0
KCH1 111616Z 03014KT 13/M01 A302 RMK A01 T01341011  RH  037%=      5-min Rain = 0
KCH1 111617Z 03016KT 13/M01 A302 RMK A01 T01331010  RH  037%=      5-min Rain = 0
KCH1 111618Z 02016G21KT 13/M01 A302 RMK A01 T01321010  RH  037%=      5-min Rain = 0
KCH1 111619Z 02015KT 13/M01 A302 RMK A01 T01321009  RH  038%=      5-min Rain = 0
KCH1 111620Z 02015KT 13/M01 A302 RMK A01 T01321009  RH  038%=      5-min Rain = 0
KCH1 111621Z 03012G20KT 13/M01 A302 RMK A01 T01321007  RH  038%=      5-min Rain = 0
KCH1 111622Z 02015G21KT 13/M01 A302 RMK A01 T01341007  RH  038%=      5-min Rain = 0
KCH1 111623Z 02018KT 13/M01 A302 RMK A01 T01341011  RH  037%=      5-min Rain = 0
KCH1 111624Z 03016KT 13/M01 A302 RMK A01 T01331010  RH  037%=      5-min Rain = 0
KCH1 111625Z 01012KT 13/M01 A302 RMK A01 T01331008  RH  038%=      5-min Rain = 0
KCH1 111626Z 01015G22KT 13/M01 A302 RMK A01 T01341007  RH  038%=      5-min Rain = 0
KCH1 111627Z 02016G22KT 14/M01 A302 RMK A01 T01351008  RH  037%=      5-min Rain = 0
KCH1 111628Z 02018G23KT 13/M01 A3021 RMK A01 T01341009  RH  037%=      5-min Rain = 0
KCH1 111629Z 02016KT 13/M01 A3021 RMK A01 T01331010  RH  037%=      5-min Rain = 0
KCH1 111630Z 02015KT 13/M01 A3021 RMK A01 T01331010  RH  037%=      5-min Rain = 0
KCH1 111631Z 01013G21KT 13/M01 A302 RMK A01 T01331009  RH  037%=      5-min Rain = 0
KCH1 111632Z 02013G20KT 13/M01 A3021 RMK A01 T01341007  RH  038%=      5-min Rain = 0
KCH1 111633Z 03012G17KT 14/M01 A3021 RMK A01 T01351007  RH  038%=      5-min Rain = 0
KCH1 111634Z 03013G18KT 14/M01 A3021 RMK A01 T01361007  RH  037%=      5-min Rain = 0
KCH1 111635Z 01012KT 14/M01 A3021 RMK A01 T01361006  RH  038%=      5-min Rain = 0
KCH1 111636Z 02016KT 14/M01 A3021 RMK A01 T01361006  RH  038%=      5-min Rain = 0
KCH1 111637Z 02013KT 13/M01 A3021 RMK A01 T01341007  RH  038%=      5-min Rain = 0
KCH1 111638Z 04012KT 13/M01 A3021 RMK A01 T01331006  RH  038%=      5-min Rain = 0
KCH1 111639Z 03011G16KT 13/M00 A3021 RMK A01 T01341004  RH  039%=      5-min Rain = 0
KCH1 111640Z 02009KT 14/M00 A3021 RMK A01 T01361002  RH  039%=      5-min Rain = 0
KCH1 111641Z 02010KT 14/00 A3021 RMK A01 T01380000  RH  039%=      5-min Rain = 0
KCH1 111642Z 01012KT 14/00 A3021 RMK A01 T013800-0  RH  039%=      5-min Rain = 0
KCH1 111643Z 00010KT 14/00 A3021 RMK A01 T013700-0  RH  039%=      5-min Rain = 0
KCH1 111644Z 01010G15KT 14/00 A3021 RMK A01 T013600-0  RH  039%=      5-min Rain = 0
KCH1 111645Z 02015G22KT 14/00 A3021 RMK A01 T013600-0  RH  039%=      5-min Rain = 0
KCH1 111646Z 02018KT 14/M00 A3021 RMK A01 T01351004  RH  039%=      5-min Rain = 0
KCH1 111647Z 02012KT 13/M00 A3021 RMK A01 T01321004  RH  039%=      5-min Rain = 0
KCH1 111648Z 03016G21KT 13/M00 A3021 RMK A01 T01321002  RH  040%=      5-min Rain = 0
KCH1 111649Z 02019G26KT 13/M00 A3021 RMK A01 T01331003  RH  039%=      5-min Rain = 0
KCH1 111650Z 01016G23KT 13/M01 A3022 RMK A01 T01311005  RH  039%=      5-min Rain = 0
KCH1 111651Z 01018G24KT 13/M01 A3022 RMK A01 T01311005  RH  039%=      5-min Rain = 0
KCH1 111652Z 03018G24KT 13/M01 A3022 RMK A01 T01301006  RH  039%=      5-min Rain = 0
KCH1 111653Z 03016G21KT 13/M01 A3022 RMK A01 T01281006  RH  039%=      5-min Rain = 0
KCH1 111654Z 03020G25KT 13/M01 A3022 RMK A01 T01281006  RH  040%=      5-min Rain = 0
KCH1 111655Z 03023G28KT 13/M01 A3022 RMK A01 T01281010  RH  038%=      5-min Rain = 0
KCH1 111656Z 03019G24KT 13/M01 A3022 RMK A01 T01281012  RH  038%=      5-min Rain = 0
KCH1 111657Z 03019G24KT 13/M01 A3022 RMK A01 T01281014  RH  038%=      5-min Rain = 0
KCH1 111658Z 03014G20KT 13/M01 A3022 RMK A01 T01301012  RH  037%=      5-min Rain = 0
KCH1 111659Z 03018KT 13/M01 A3022 RMK A01 T01311012  RH  037%=      5-min Rain = 0
KCH1 111700Z 03018G24KT 13/M02 A3021 RMK A01 T01311016  RH  036%=      5-min Rain = 0
KCH1 111701Z 03018G25KT 13/M02 A3022 RMK A01 T01301016  RH  036%=      5-min Rain = 0
KCH1 111702Z 04016KT 13/M02 A3022 RMK A01 T01291017  RH  036%=      5-min Rain = 0
KCH1 111703Z 02018G25KT 13/M02 A3022 RMK A01 T01291015  RH  037%=      5-min Rain = 0
KCH1 111704Z 03020G27KT 13/M02 A3022 RMK A01 T01291018  RH  036%=      5-min Rain = 0
KCH1 111705Z 03019G25KT 13/M02 A3022 RMK A01 T01291019  RH  036%=      5-min Rain = 0
KCH1 111706Z 02019G25KT 13/M02 A3022 RMK A01 T01291018  RH  036%=      5-min Rain = 0
KCH1 111707Z 03017KT 13/M02 A3022 RMK A01 T01291019  RH  036%=      5-min Rain = 0
KCH1 111708Z 03018G23KT 13/M02 A3022 RMK A01 T01301018  RH  036%=      5-min Rain = 0
KCH1 111709Z 03019G24KT 13/M02 A3022 RMK A01 T01301018  RH  036%=      5-min Rain = 0
KCH1 111710Z 04017G22KT 13/M02 A3022 RMK A01 T01301016  RH  036%=      5-min Rain = 0
KCH1 111711Z 03016KT 13/M02 A3022 RMK A01 T01311016  RH  036%=      5-min Rain = 0
KCH1 111712Z 03016KT 13/M02 A3022 RMK A01 T01311015  RH  036%=      5-min Rain = 0
KCH1 111713Z 04013KT 13/M01 A3022 RMK A01 T01311014  RH  036%=      5-min Rain = 0
KCH1 111714Z 02014KT 13/M01 A3022 RMK A01 T01331013  RH  036%=      5-min Rain = 0
KCH1 111715Z 03013G18KT 13/M02 A3022 RMK A01 T01341015  RH  036%=      5-min Rain = 0
KCH1 111716Z 03017G22KT 14/M02 A3022 RMK A01 T01351016  RH  035%=      5-min Rain = 0
KCH1 111717Z 02018KT 14/M02 A3022 RMK A01 T01351017  RH  035%=      5-min Rain = 0
KCH1 111718Z 03015G23KT 13/M02 A3022 RMK A01 T01341016  RH  036%=      5-min Rain = 0
KCH1 111719Z 04018G23KT 13/M02 A3022 RMK A01 T01331015  RH  036%=      5-min Rain = 0
KCH1 111720Z 03019G24KT 13/M01 A3022 RMK A01 T01331012  RH  037%=      5-min Rain = 0
KCH1 111721Z 04018KT 13/M01 A3022 RMK A01 T01321011  RH  037%=      5-min Rain = 0
KCH1 111722Z 02016G22KT 13/M01 A3022 RMK A01 T01311011  RH  037%=      5-min Rain = 0
KCH1 111723Z 02016KT 13/M01 A3022 RMK A01 T01321010  RH  038%=      5-min Rain = 0
KCH1 111724Z 02015G21KT 13/M01 A3022 RMK A01 T01321010  RH  037%=      5-min Rain = 0
KCH1 111725Z 01017G22KT 13/M01 A3022 RMK A01 T01331010  RH  037%=      5-min Rain = 0
KCH1 111726Z 01013KT 13/M01 A3022 RMK A01 T01331010  RH  037%=      5-min Rain = 0
KCH1 111727Z 02016KT 13/M01 A3022 RMK A01 T01341009  RH  037%=      5-min Rain = 0
KCH1 111728Z 01012KT 13/M01 A3022 RMK A01 T01341010  RH  037%=      5-min Rain = 0
KCH1 111729Z 01012G18KT 14/M01 A3022 RMK A01 T01351009  RH  037%=      5-min Rain = 0
KCH1 111730Z 01018G25KT 14/M01 A3022 RMK A01 T01371008  RH  037%=      5-min Rain = 0
KCH1 111731Z 02016G25KT 14/M01 A3022 RMK A01 T01371010  RH  036%=      5-min Rain = 0
KCH1 111732Z 01017KT 14/M01 A3022 RMK A01 T01361010  RH  037%=      5-min Rain = 0
KCH1 111733Z 01019G25KT 14/M01 A3022 RMK A01 T01351013  RH  036%=      5-min Rain = 0
KCH1 111734Z 01015KT 13/M01 A3022 RMK A01 T01341013  RH  036%=      5-min Rain = 0
KCH1 111735Z 36018G26KT 14/M02 A3022 RMK A01 T01371016  RH  035%=      5-min Rain = 0
KCH1 111736Z 00018G24KT 14/M02 A3022 RMK A01 T01391022  RH  033%=      5-min Rain = 0
KCH1 111737Z 01019KT 14/M02 A3022 RMK A01 T01381023  RH  033%=      5-min Rain = 0
KCH1 111738Z 02016KT 14/M02 A3022 RMK A01 T01361022  RH  033%=      5-min Rain = 0
KCH1 111739Z 03013KT 14/M02 A3022 RMK A01 T01351020  RH  034%=      5-min Rain = 0
KCH1 111740Z 36021G27KT 14/M02 A3022 RMK A01 T01381021  RH  033%=      5-min Rain = 0
KCH1 111741Z 00021G26KT 14/M03 A3022 RMK A01 T01351032  RH  031%=      5-min Rain = 0
KCH1 111742Z 36022G28KT 13/M03 A3022 RMK A01 T01321032  RH  032%=      5-min Rain = 0
KCH1 111743Z 00017G23KT 13/M03 A3022 RMK A01 T01311032  RH  032%=      5-min Rain = 0
KCH1 111744Z 00017G22KT 13/M03 A3022 RMK A01 T01291031  RH  033%=      5-min Rain = 0
KCH1 111745Z 00019G27KT 13/M03 A3022 RMK A01 T01291030  RH  033%=      5-min Rain = 0
KCH1 111746Z 00019G26KT 13/M03 A3022 RMK A01 T01291028  RH  034%=      5-min Rain = 0
KCH1 111747Z 01022G27KT 13/M03 A3023 RMK A01 T01281027  RH  034%=      5-min Rain = 0
KCH1 111748Z 00021G30KT 13/M03 A3023 RMK A01 T01271027  RH  034%=      5-min Rain = 0
KCH1 111749Z 36020G26KT 13/M03 A3023 RMK A01 T01251028  RH  034%=      5-min Rain = 0
KCH1 111750Z 36014G19KT 12/M03 A3023 RMK A01 T01231027  RH  035%=      5-min Rain = 0
KCH1 111751Z 01014G20KT 13/M03 A3023 RMK A01 T01251025  RH  035%=      5-min Rain = 0
KCH1 111752Z 01015KT 13/M02 A3023 RMK A01 T01261024  RH  035%=      5-min Rain = 0
KCH1 111753Z 02013KT 13/M02 A3023 RMK A01 T01261023  RH  036%=      5-min Rain = 0
KCH1 111754Z 03013G19KT 13/M02 A3023 RMK A01 T01281020  RH  036%=      5-min Rain = 0
KCH1 111755Z 04015KT 13/M02 A3023 RMK A01 T01301019  RH  036%=      5-min Rain = 0
KCH1 111756Z 02013G18KT 13/M02 A3023 RMK A01 T01291019  RH  036%=      5-min Rain = 0
KCH1 111757Z 02018KT 13/M02 A3023 RMK A01 T01301019  RH  036%=      5-min Rain = 0
KCH1 111758Z 01015G20KT 13/M02 A3023 RMK A01 T01291019  RH  036%=      5-min Rain = 0
KCH1 111759Z 01013G18KT 13/M02 A3023 RMK A01 T01291018  RH  036%=      5-min Rain = 0
KCH1 111800Z 01014G19KT 13/M02 A3023 RMK A01 T01301018  RH  036%=      5-min Rain = 0
KCH1 111801Z 02014G19KT 13/M02 A3023 RMK A01 T01301018  RH  036%=      5-min Rain = 0
KCH1 111802Z 03019G25KT 13/M02 A3023 RMK A01 T01301020  RH  035%=      5-min Rain = 0
KCH1 111803Z 03017KT 13/M02 A3023 RMK A01 T01291023  RH  035%=      5-min Rain = 0
KCH1 111804Z 03020G27KT 13/M02 A3023 RMK A01 T01281022  RH  035%=      5-min Rain = 0
KCH1 111805Z 03018G24KT 13/M02 A3023 RMK A01 T01291024  RH  034%=      5-min Rain = 0
KCH1 111806Z 03017G25KT 13/M03 A3023 RMK A01 T01291026  RH  034%=      5-min Rain = 0
KCH1 111807Z 03020G27KT 13/M03 A3023 RMK A01 T01291028  RH  033%=      5-min Rain = 0
KCH1 111808Z 03021G27KT 13/M03 A3023 RMK A01 T01271030  RH  033%=      5-min Rain = 0
KCH1 111809Z 03017G23KT 13/M03 A3023 RMK A01 T01251029  RH  034%=      5-min Rain = 0
KCH1 111810Z 03016G23KT 13/M03 A3023 RMK A01 T01251028  RH  034%=      5-min Rain = 0
KCH1 111811Z 03019KT 13/M03 A3023 RMK A01 T01261026  RH  035%=      5-min Rain = 0
KCH1 111812Z 02015KT 13/M03 A3023 RMK A01 T01261026  RH  035%=      5-min Rain = 0
KCH1 111813Z 02017G22KT 13/M03 A3023 RMK A01 T01261026  RH  035%=      5-min Rain = 0
KCH1 111814Z 03017G22KT 13/M03 A3023 RMK A01 T01271025  RH  035%=      5-min Rain = 0
KCH1 111815Z 03019G24KT 13/M03 A3023 RMK A01 T01271025  RH  035%=      5-min Rain = 0
KCH1 111816Z 03014KT 13/M03 A3023 RMK A01 T01281025  RH  035%=      5-min Rain = 0
KCH1 111817Z 02011G16KT 13/M02 A3023 RMK A01 T01291022  RH  035%=      5-min Rain = 0
KCH1 111818Z 04012G21KT 13/M02 A3023 RMK A01 T01321019  RH  035%=      5-min Rain = 0
KCH1 111819Z 03016KT 13/M02 A3023 RMK A01 T01341021  RH  034%=      5-min Rain = 0
KCH1 111820Z 03014KT 13/M02 A3023 RMK A01 T01331022  RH  034%=      5-min Rain = 0
KCH1 111821Z 04017KT 13/M02 A3023 RMK A01 T01321020  RH  035%=      5-min Rain = 0
KCH1 111822Z 04016G22KT 13/M02 A3023 RMK A01 T01311021  RH  035%=      5-min Rain = 0
KCH1 111823Z 03012KT 13/M02 A3023 RMK A01 T01311019  RH  035%=      5-min Rain = 0
KCH1 111824Z 03014KT 13/M02 A3023 RMK A01 T01321018  RH  035%=      5-min Rain = 0
KCH1 111825Z 04012G19KT 13/M02 A3023 RMK A01 T01331019  RH  035%=      5-min Rain = 0
KCH1 111826Z 04012G18KT 13/M02 A3023 RMK A01 T01321018  RH  035%=      5-min Rain = 0
KCH1 111827Z 04010G16KT 13/M02 A3023 RMK A01 T01331018  RH  035%=      5-min Rain = 0
KCH1 111828Z 04012G18KT 13/M02 A3023 RMK A01 T01331017  RH  035%=      5-min Rain = 0
KCH1 111829Z 02010KT 13/M02 A3023 RMK A01 T01331017  RH  035%=      5-min Rain = 0
KCH1 111830Z 01011KT 13/M02 A3023 RMK A01 T01331016  RH  036%=      5-min Rain = 0
KCH1 111831Z 01010KT 13/M02 A3023 RMK A01 T01321016  RH  036%=      5-min Rain = 0
KCH1 111832Z 01013G18KT 13/M01 A3023 RMK A01 T01321014  RH  036%=      5-min Rain = 0
KCH1 111833Z 00011G17KT 13/M02 A3023 RMK A01 T01321015  RH  036%=      5-min Rain = 0
KCH1 111834Z 01008KT 13/M01 A3023 RMK A01 T01321013  RH  037%=      5-min Rain = 0
KCH1 111835Z 01006KT 13/M01 A3023 RMK A01 T01321012  RH  037%=      5-min Rain = 0
KCH1 111836Z 02007KT 14/M01 A3023 RMK A01 T01351009  RH  037%=      5-min Rain = 0
KCH1 111837Z 02009G14KT 14/M01 A3023 RMK A01 T01361010  RH  036%=      5-min Rain = 0
KCH1 111838Z 01015G20KT 14/M01 A3023 RMK A01 T01361013  RH  036%=      5-min Rain = 0
KCH1 111839Z 02013KT 13/M02 A3023 RMK A01 T01321015  RH  036%=      5-min Rain = 0
KCH1 111840Z 03012G17KT 13/M01 A3023 RMK A01 T01301013  RH  037%=      5-min Rain = 0
KCH1 111841Z 02010KT 13/M01 A3023 RMK A01 T01301012  RH  037%=      5-min Rain = 0
KCH1 111842Z 01012KT 13/M01 A3023 RMK A01 T01311012  RH  037%=      5-min Rain = 0
KCH1 111843Z 02013KT 13/M02 A3023 RMK A01 T01311016  RH  036%=      5-min Rain = 0
KCH1 111844Z 01010G15KT 13/M02 A3023 RMK A01 T01311019  RH  035%=      5-min Rain = 0
KCH1 111845Z 01017G24KT 13/M02 A3023 RMK A01 T01311023  RH  034%=      5-min Rain = 0
KCH1 111846Z 01013KT 13/M03 A3023 RMK A01 T01301027  RH  033%=      5-min Rain = 0
KCH1 111847Z 02013G20KT 13/M03 A3023 RMK A01 T01281027  RH  034%=      5-min Rain = 0
KCH1 111848Z 02013KT 13/M02 A3024 RMK A01 T01281024  RH  035%=      5-min Rain = 0
KCH1 111849Z 02013G19KT 13/M02 A3024 RMK A01 T01311022  RH  035%=      5-min Rain = 0
KCH1 111850Z 02017KT 13/M02 A3024 RMK A01 T01311024  RH  034%=      5-min Rain = 0
KCH1 111851Z 01016G21KT 13/M03 A3023 RMK A01 T01301029  RH  033%=      5-min Rain = 0
KCH1 111852Z 01018KT 13/M03 A3023 RMK A01 T01281030  RH  033%=      5-min Rain = 0
KCH1 111853Z 02011KT 13/M03 A3023 RMK A01 T01271028  RH  034%=      5-min Rain = 0
KCH1 111854Z 02016G22KT 13/M03 A3023 RMK A01 T01301026  RH  034%=      5-min Rain = 0
KCH1 111855Z 03014G19KT 13/M03 A3023 RMK A01 T01311028  RH  033%=      5-min Rain = 0
KCH1 111856Z 04018KT 13/M03 A3023 RMK A01 T01311031  RH  032%=      5-min Rain = 0
KCH1 111857Z 03016KT 13/M03 A3023 RMK A01 T01311033  RH  032%=      5-min Rain = 0
KCH1 111858Z 03013G18KT 13/M03 A3023 RMK A01 T01311032  RH  032%=      5-min Rain = 0
KCH1 111859Z 04018KT 13/M03 A3023 RMK A01 T01331027  RH  033%=      5-min Rain = 0
KCH1 111900Z 04011G16KT 14/M03 A3023 RMK A01 T01351027  RH  032%=      5-min Rain = 0
KCH1 111901Z 03010KT 14/M03 A3023 RMK A01 T01361027  RH  032%=      5-min Rain = 0
KCH1 111902Z 02015G21KT 14/M03 A3023 RMK A01 T01351029  RH  032%=      5-min Rain = 0
KCH1 111903Z 01014G21KT 13/M03 A3023 RMK A01 T01321031  RH  032%=      5-min Rain = 0
KCH1 111904Z 02013G19KT 13/M03 A3023 RMK A01 T01301030  RH  033%=      5-min Rain = 0
KCH1 111905Z 02014G19KT 13/M03 A3023 RMK A01 T01291028  RH  033%=      5-min Rain = 0
KCH1 111906Z 03015KT 13/M03 A3023 RMK A01 T01291028  RH  033%=      5-min Rain = 0
KCH1 111907Z 03016KT 13/M03 A3023 RMK A01 T01291029  RH  033%=      5-min Rain = 0
KCH1 111908Z 01015KT 13/M03 A3023 RMK A01 T01301029  RH  033%=      5-min Rain = 0
KCH1 111909Z 01016G23KT 13/M03 A3023 RMK A01 T01301028  RH  033%=      5-min Rain = 0
KCH1 111910Z 02016KT 13/M03 A3023 RMK A01 T01311030  RH  033%=      5-min Rain = 0
KCH1 111911Z 02013G19KT 13/M03 A3023 RMK A01 T01311030  RH  032%=      5-min Rain = 0
KCH1 111912Z 03014KT 13/M03 A3023 RMK A01 T01321029  RH  033%=      5-min Rain = 0
KCH1 111913Z 01012G17KT 13/M03 A3023 RMK A01 T01331027  RH  033%=      5-min Rain = 0
KCH1 111914Z 36015G20KT 14/M03 A3023 RMK A01 T01351030  RH  032%=      5-min Rain = 0
KCH1 111915Z 01015G21KT 14/M03 A3023 RMK A01 T01351031  RH  031%=      5-min Rain = 0
KCH1 111916Z 01017KT 14/M03 A3023 RMK A01 T01361034  RH  031%=      5-min Rain = 0
KCH1 111917Z 01019KT 14/M04 A3023 RMK A01 T01351037  RH  030%=      5-min Rain = 0
KCH1 111918Z 02017KT 13/M04 A3023 RMK A01 T01331038  RH  030%=      5-min Rain = 0
KCH1 111919Z 03016KT 13/M04 A3023 RMK A01 T01331036  RH  031%=      5-min Rain = 0
KCH1 111920Z 03014G19KT 13/M04 A3022 RMK A01 T01341036  RH  031%=      5-min Rain = 0
KCH1 111921Z 02014G22KT 14/M04 A3022 RMK A01 T01351036  RH  030%=      5-min Rain = 0
KCH1 111922Z 03018G23KT 14/M04 A3022 RMK A01 T01371039  RH  029%=      5-min Rain = 0
KCH1 111923Z 02015G21KT 14/M04 A3022 RMK A01 T01371041  RH  029%=      5-min Rain = 0
KCH1 111924Z 02013G18KT 14/M04 A3022 RMK A01 T01391039  RH  029%=      5-min Rain = 0
KCH1 111925Z 02016G21KT 14/M04 A3022 RMK A01 T01411040  RH  028%=      5-min Rain = 0
KCH1 111926Z 02015G22KT 14/M05 A3022 RMK A01 T01391045  RH  028%=      5-min Rain = 0
KCH1 111927Z 03013KT 14/M05 A3022 RMK A01 T01371045  RH  028%=      5-min Rain = 0
KCH1 111928Z 01011KT 14/M04 A3022 RMK A01 T01391041  RH  028%=      5-min Rain = 0
KCH1 111929Z 00016G21KT 14/M04 A3022 RMK A01 T01401039  RH  029%=      5-min Rain = 0
KCH1 111930Z 01013G18KT 14/M04 A3022 RMK A01 T01391039  RH  029%=      5-min Rain = 0
KCH1 111931Z 02015KT 14/M04 A3022 RMK A01 T01381037  RH  030%=      5-min Rain = 0
KCH1 111932Z 01018G24KT 14/M04 A3022 RMK A01 T01371037  RH  030%=      5-min Rain = 0
KCH1 111933Z 02013G20KT 14/M04 A3022 RMK A01 T01361041  RH  029%=      5-min Rain = 0
KCH1 111934Z 02017G22KT 14/M04 A3022 RMK A01 T01361041  RH  029%=      5-min Rain = 0
KCH1 111935Z 02015G22KT 14/M04 A3022 RMK A01 T01371043  RH  028%=      5-min Rain = 0
KCH1 111936Z 02014G20KT 14/M04 A3021 RMK A01 T01371043  RH  028%=      5-min Rain = 0
KCH1 111937Z 01014KT 14/M04 A3022 RMK A01 T01381042  RH  028%=      5-min Rain = 0
KCH1 111938Z 01016KT 14/M04 A3021 RMK A01 T01381043  RH  028%=      5-min Rain = 0
KCH1 111939Z 02013G19KT 14/M04 A3021 RMK A01 T01371044  RH  028%=      5-min Rain = 0
KCH1 111940Z 02015KT 14/M04 A3021 RMK A01 T01371043  RH  028%=      5-min Rain = 0
KCH1 111941Z 02016G22KT 14/M04 A3021 RMK A01 T01361044  RH  028%=      5-min Rain = 0
KCH1 111942Z 02015G20KT 13/M04 A3021 RMK A01 T01341043  RH  029%=      5-min Rain = 0
KCH1 111943Z 03017KT 14/M04 A3021 RMK A01 T01351043  RH  029%=      5-min Rain = 0
KCH1 111944Z 02014KT 13/M04 A3021 RMK A01 T01341041  RH  029%=      5-min Rain = 0
KCH1 111945Z 02012G18KT 13/M04 A3021 RMK A01 T01331040  RH  030%=      5-min Rain = 0
KCH1 111946Z 03011KT 14/M04 A3021 RMK A01 T01351039  RH  030%=      5-min Rain = 0
KCH1 111947Z 02010KT 14/M04 A3021 RMK A01 T01351041  RH  029%=      5-min Rain = 0
KCH1 111948Z 04012G17KT 13/M04 A3021 RMK A01 T01341039  RH  030%=      5-min Rain = 0
KCH1 111949Z 03011G17KT 14/M04 A3021 RMK A01 T01351037  RH  030%=      5-min Rain = 0
KCH1 111950Z 02008G15KT 14/M04 A3021 RMK A01 T01351037  RH  030%=      5-min Rain = 0
KCH1 111951Z 03013KT 14/M04 A3021 RMK A01 T01361036  RH  030%=      5-min Rain = 0
KCH1 111952Z 03010G15KT 14/M04 A3021 RMK A01 T01361035  RH  030%=      5-min Rain = 0
KCH1 111953Z 01014KT 14/M04 A3021 RMK A01 T01371035  RH  030%=      5-min Rain = 0
KCH1 111954Z 01009KT 14/M04 A3021 RMK A01 T01381037  RH  029%=      5-min Rain = 0
KCH1 111955Z 01008KT 14/M03 A3021 RMK A01 T01391034  RH  030%=      5-min Rain = 0
KCH1 111956Z 00009G14KT 14/M03 A3021 RMK A01 T01411034  RH  030%=      5-min Rain = 0
KCH1 111957Z 01010KT 14/M03 A3021 RMK A01 T01431032  RH  030%=      5-min Rain = 0
KCH1 111958Z 03013G18KT 14/M03 A3021 RMK A01 T01441031  RH  030%=      5-min Rain = 0
KCH1 111959Z 03012KT 14/M03 A3021 RMK A01 T01441031  RH  030%=      5-min Rain = 0
KCH1 112000Z 01015KT 14/M03 A3021 RMK A01 T01441030  RH  030%=      5-min Rain = 0
KCH1 112001Z 00014KT 14/M03 A3021 RMK A01 T01441032  RH  030%=      5-min Rain = 0
KCH1 112002Z 36011KT 14/M03 A3021 RMK A01 T01431031  RH  030%=      5-min Rain = 0
KCH1 112003Z 00013KT 14/M03 A3021 RMK A01 T01421030  RH  030%=      5-min Rain = 0
KCH1 112004Z 36015G22KT 14/M03 A3021 RMK A01 T01421030  RH  030%=      5-min Rain = 0
KCH1 112005Z 00017KT 14/M03 A3021 RMK A01 T01411031  RH  030%=      5-min Rain = 0
KCH1 112006Z 00015G22KT 14/M03 A3021 RMK A01 T01391031  RH  031%=      5-min Rain = 0
KCH1 112007Z 00016KT 14/M03 A3021 RMK A01 T01391033  RH  030%=      5-min Rain = 0
KCH1 112008Z 00017KT 14/M04 A3021 RMK A01 T01381036  RH  030%=      5-min Rain = 0
KCH1 112009Z 01016G22KT 14/M04 A3021 RMK A01 T01371043  RH  028%=      5-min Rain = 0
KCH1 112010Z 01014KT 14/M04 A3021 RMK A01 T01381044  RH  028%=      5-min Rain = 0
KCH1 112011Z 01015KT 14/M05 A3021 RMK A01 T01401046  RH  027%=      5-min Rain = 0
KCH1 112012Z 02014G19KT 14/M05 A3021 RMK A01 T01421046  RH  027%=      5-min Rain = 0
KCH1 112013Z 02015G20KT 14/M05 A3021 RMK A01 T01441046  RH  027%=      5-min Rain = 0
KCH1 112014Z 02013G19KT 14/M05 A3021 RMK A01 T01441045  RH  027%=      5-min Rain = 0
KCH1 112015Z 01013KT 14/M05 A3021 RMK A01 T01441046  RH  027%=      5-min Rain = 0
KCH1 112016Z 01012KT 14/M05 A3021 RMK A01 T01441045  RH  027%=      5-min Rain = 0
KCH1 112017Z 01015G21KT 15/M05 A3021 RMK A01 T01451046  RH  026%=      5-min Rain = 0
KCH1 112018Z 01015G21KT 15/M05 A3021 RMK A01 T01461051  RH  025%=      5-min Rain = 0
KCH1 112019Z 01018KT 15/M06 A3021 RMK A01 T01461057  RH  024%=      5-min Rain = 0
KCH1 112020Z 02016KT 14/M06 A3021 RMK A01 T01431059  RH  024%=      5-min Rain = 0
KCH1 112021Z 01015KT 14/M06 A3021 RMK A01 T01401060  RH  024%=      5-min Rain = 0
KCH1 112022Z 01014KT 14/M06 A3021 RMK A01 T01401063  RH  024%=      5-min Rain = 0
KCH1 112023Z 02011G16KT 14/M06 A3021 RMK A01 T01421061  RH  024%=      5-min Rain = 0
KCH1 112024Z 03015KT 14/M06 A3021 RMK A01 T01441060  RH  024%=      5-min Rain = 0
KCH1 112025Z 03017G22KT 14/M06 A3021 RMK A01 T01441062  RH  023%=      5-min Rain = 0
KCH1 112026Z 02015KT 14/M07 A3021 RMK A01 T01411065  RH  023%=      5-min Rain = 0
KCH1 112027Z 03013KT 14/M07 A3021 RMK A01 T01391065  RH  024%=      5-min Rain = 0
KCH1 112028Z 02015G20KT 14/M07 A3021 RMK A01 T01371065  RH  024%=      5-min Rain = 0
KCH1 112029Z 03014G22KT 14/M06 A302 RMK A01 T01391060  RH  025%=      5-min Rain = 0
KCH1 112030Z 03013KT 14/M06 A3021 RMK A01 T01431058  RH  024%=      5-min Rain = 0
KCH1 112031Z 02008KT 15/M06 A3021 RMK A01 T01461056  RH  024%=      5-min Rain = 0
KCH1 112032Z 01008KT 15/M05 A3021 RMK A01 T01491054  RH  024%=      5-min Rain = 0
KCH1 112033Z 36007KT 15/M06 A3021 RMK A01 T01511055  RH  024%=      5-min Rain = 0
KCH1 112034Z 00011KT 15/M06 A3021 RMK A01 T01521056  RH  023%=      5-min Rain = 0
KCH1 112035Z 35011KT 15/M06 A3021 RMK A01 T01501060  RH  023%=      5-min Rain = 0
KCH1 112036Z 35011KT 15/M06 A3021 RMK A01 T01451060  RH  024%=      5-min Rain = 0
KCH1 112037Z 36013G20KT 15/M06 A3021 RMK A01 T01451059  RH  024%=      5-min Rain = 0
KCH1 112038Z 01012KT 15/M06 A3021 RMK A01 T01451059  RH  024%=      5-min Rain = 0
KCH1 112039Z 00012KT 15/M06 A3021 RMK A01 T01451058  RH  024%=      5-min Rain = 0
KCH1 112040Z 01012KT 15/M06 A3021 RMK A01 T01471057  RH  024%=      5-min Rain = 0
KCH1 112041Z 00014G20KT 15/M06 A3021 RMK A01 T01481058  RH  024%=      5-min Rain = 0
KCH1 112042Z 02013KT 15/M06 A3021 RMK A01 T01481061  RH  023%=      5-min Rain = 0
KCH1 112043Z 36012KT 15/M06 A3021 RMK A01 T01481059  RH  023%=      5-min Rain = 0
KCH1 112044Z 00011G17KT 15/M06 A3021 RMK A01 T01491058  RH  023%=      5-min Rain = 0
KCH1 112045Z 36008G15KT 15/M06 A3021 RMK A01 T01501056  RH  024%=      5-min Rain = 0
KCH1 112046Z 00012KT 15/M06 A3021 RMK A01 T01501056  RH  024%=      5-min Rain = 0
KCH1 112047Z 00013KT 15/M06 A3021 RMK A01 T01481059  RH  023%=      5-min Rain = 0
KCH1 112048Z 36013G18KT 15/M06 A3021 RMK A01 T01461055  RH  024%=      5-min Rain = 0
KCH1 112049Z 01015KT 15/M05 A3021 RMK A01 T01471054  RH  025%=      5-min Rain = 0
KCH1 112050Z 02013KT 15/M06 A3021 RMK A01 T01471055  RH  024%=      5-min Rain = 0
KCH1 112051Z 02014KT 15/M06 A3021 RMK A01 T01481057  RH  024%=      5-min Rain = 0
KCH1 112052Z 01014KT 15/M06 A302 RMK A01 T01481056  RH  024%=      5-min Rain = 0
KCH1 112053Z 03012KT 15/M06 A302 RMK A01 T01491056  RH  024%=      5-min Rain = 0
KCH1 112054Z 03015G21KT 15/M06 A302 RMK A01 T01501058  RH  023%=      5-min Rain = 0
KCH1 112055Z 03017G22KT 15/M06 A302 RMK A01 T01501059  RH  023%=      5-min Rain = 0
KCH1 112056Z 03018KT 15/M06 A302 RMK A01 T01491061  RH  023%=      5-min Rain = 0
KCH1 112057Z 03017KT 15/M06 A302 RMK A01 T01461063  RH  023%=      5-min Rain = 0
KCH1 112058Z 01012G19KT 14/M07 A3021 RMK A01 T01441065  RH  023%=      5-min Rain = 0
KCH1 112059Z 01010G16KT 14/M07 A3021 RMK A01 T01431065  RH  023%=      5-min Rain = 0
KCH1 112100Z 36013KT 14/M07 A3021 RMK A01 T01441069  RH  022%=      5-min Rain = 0
KCH1 112101Z 01014KT 14/M08 A3021 RMK A01 T01441079  RH  021%=      5-min Rain = 0
KCH1 112102Z 01013KT 14/M08 A3021 RMK A01 T01441081  RH  020%=      5-min Rain = 0
KCH1 112103Z 00016KT 14/M09 A3021 RMK A01 T01431086  RH  020%=      5-min Rain = 0
KCH1 112104Z 01015G22KT 14/M09 A3021 RMK A01 T01421089  RH  019%=      5-min Rain = 0
KCH1 112105Z 02015G20KT 14/M09 A3021 RMK A01 T01401087  RH  020%=      5-min Rain = 0
KCH1 112106Z 01015KT 14/M09 A3021 RMK A01 T01401088  RH  020%=      5-min Rain = 0
KCH1 112107Z 01017KT 14/M09 A3021 RMK A01 T01401086  RH  020%=      5-min Rain = 0
KCH1 112108Z 02011G17KT 14/M09 A3021 RMK A01 T01401086  RH  020%=      5-min Rain = 0
KCH1 112109Z 02012G20KT 14/M08 A3021 RMK A01 T01411082  RH  021%=      5-min Rain = 0
KCH1 112110Z 02012G17KT 14/M08 A3021 RMK A01 T01421084  RH  020%=      5-min Rain = 0
KCH1 112111Z 01014KT 14/M08 A3021 RMK A01 T01421084  RH  020%=      5-min Rain = 0
KCH1 112112Z 01017G23KT 14/M08 A3021 RMK A01 T01411082  RH  021%=      5-min Rain = 0
KCH1 112113Z 36014KT 14/M08 A3021 RMK A01 T01411080  RH  021%=      5-min Rain = 0
KCH1 112114Z 35011KT 14/M08 A3021 RMK A01 T01411079  RH  021%=      5-min Rain = 0
KCH1 112115Z 01009KT 14/M08 A3021 RMK A01 T01411075  RH  022%=      5-min Rain = 0
KCH1 112116Z 01009KT 14/M07 A3021 RMK A01 T01421072  RH  022%=      5-min Rain = 0
KCH1 112117Z 36009G14KT 15/M07 A3021 RMK A01 T01451072  RH  022%=      5-min Rain = 0
KCH1 112118Z 01009KT 15/M08 A3021 RMK A01 T01451076  RH  021%=      5-min Rain = 0
KCH1 112119Z 03010KT 15/M08 A3021 RMK A01 T01461076  RH  021%=      5-min Rain = 0
KCH1 112120Z 03013G18KT 15/M08 A3021 RMK A01 T01481077  RH  021%=      5-min Rain = 0
KCH1 112121Z 01012KT 15/M08 A3021 RMK A01 T01501078  RH  020%=      5-min Rain = 0
KCH1 112122Z 00013G18KT 15/M08 A3021 RMK A01 T01511084  RH  019%=      5-min Rain = 0
KCH1 112123Z 01014G19KT 15/M09 A3021 RMK A01 T01501087  RH  019%=      5-min Rain = 0
KCH1 112124Z 36018KT 15/M09 A3021 RMK A01 T01501090  RH  018%=      5-min Rain = 0
KCH1 112125Z 00014G19KT 15/M09 A3021 RMK A01 T01491093  RH  018%=      5-min Rain = 0
KCH1 112126Z 01013KT 15/M09 A3021 RMK A01 T01511088  RH  018%=      5-min Rain = 0
KCH1 112127Z 01012KT 15/M09 A3021 RMK A01 T01521089  RH  018%=      5-min Rain = 0
KCH1 112128Z 03014G19KT 15/M09 A3021 RMK A01 T01511089  RH  018%=      5-min Rain = 0
KCH1 112129Z 03012G17KT 15/M09 A3021 RMK A01 T01511091  RH  018%=      5-min Rain = 0
KCH1 112130Z 03010G16KT 15/M09 A3021 RMK A01 T01501089  RH  018%=      5-min Rain = 0
KCH1 112131Z 03015G20KT 15/M09 A302 RMK A01 T01511088  RH  018%=      5-min Rain = 0
KCH1 112132Z 35014KT 15/M09 A3021 RMK A01 T01521087  RH  018%=      5-min Rain = 0
KCH1 112133Z 00012KT 15/M09 A3021 RMK A01 T01511089  RH  018%=      5-min Rain = 0
KCH1 112134Z 35010KT 15/M09 A3021 RMK A01 T01511088  RH  018%=      5-min Rain = 0
KCH1 112135Z 34011KT 15/M09 A3021 RMK A01 T01511086  RH  019%=      5-min Rain = 0
KCH1 112136Z 35011KT 15/M09 A3021 RMK A01 T01521086  RH  019%=      5-min Rain = 0
KCH1 112137Z 01010KT 15/M09 A3021 RMK A01 T01521087  RH  018%=      5-min Rain = 0
KCH1 112138Z 02012KT 15/M08 A3021 RMK A01 T01531084  RH  019%=      5-min Rain = 0
KCH1 112139Z 02013KT 15/M09 A3021 RMK A01 T01531086  RH  018%=      5-min Rain = 0
KCH1 112140Z 01013KT 15/M09 A3021 RMK A01 T01511090  RH  018%=      5-min Rain = 0
KCH1 112141Z 01013KT 15/M09 A3021 RMK A01 T01491090  RH  018%=      5-min Rain = 0
KCH1 112142Z 01014KT 15/M08 A302 RMK A01 T01511084  RH  019%=      5-min Rain = 0
KCH1 112143Z 02016KT 15/M09 A302 RMK A01 T01541086  RH  018%=      5-min Rain = 0
KCH1 112144Z 02014G19KT 15/M09 A302 RMK A01 T01531085  RH  018%=      5-min Rain = 0
KCH1 112145Z 02015KT 15/M08 A302 RMK A01 T01541084  RH  019%=      5-min Rain = 0
KCH1 112146Z 02013KT 16/M09 A302 RMK A01 T01551085  RH  018%=      5-min Rain = 0
KCH1 112147Z 02011KT 16/M08 A302 RMK A01 T01551082  RH  019%=      5-min Rain = 0
KCH1 112148Z 00015G21KT 16/M08 A302 RMK A01 T01591077  RH  019%=      5-min Rain = 0
KCH1 112149Z 02014KT 16/M08 A302 RMK A01 T01591081  RH  018%=      5-min Rain = 0
KCH1 112150Z 02012G19KT 16/M08 A3021 RMK A01 T01571079  RH  019%=      5-min Rain = 0
KCH1 112151Z 00014KT 16/M08 A3021 RMK A01 T01571078  RH  019%=      5-min Rain = 0
KCH1 112152Z 01013KT 16/M08 A3021 RMK A01 T01571078  RH  019%=      5-min Rain = 0
KCH1 112153Z 01010G15KT 15/M08 A3021 RMK A01 T01541080  RH  019%=      5-min Rain = 0
KCH1 112154Z 36009G16KT 15/M08 A3021 RMK A01 T01521077  RH  020%=      5-min Rain = 0
KCH1 112155Z 02014G19KT 15/M08 A302 RMK A01 T01531076  RH  020%=      5-min Rain = 0
KCH1 112156Z 01013KT 15/M08 A3021 RMK A01 T01531079  RH  020%=      5-min Rain = 0
KCH1 112157Z 35012G17KT 15/M08 A3021 RMK A01 T01521080  RH  019%=      5-min Rain = 0
KCH1 112158Z 35012KT 15/M08 A3021 RMK A01 T01501080  RH  020%=      5-min Rain = 0
KCH1 112159Z 35010KT 15/M08 A3021 RMK A01 T01501081  RH  020%=      5-min Rain = 0
KCH1 112200Z 35009KT 15/M08 A3021 RMK A01 T01491079  RH  020%=      5-min Rain = 0
KCH1 112201Z 36009KT 15/M08 A3021 RMK A01 T01501078  RH  020%=      5-min Rain = 0
KCH1 112202Z 02010KT 15/M08 A3021 RMK A01 T01531075  RH  020%=      5-min Rain = 0
KCH1 112203Z 01012KT 15/M08 A3021 RMK A01 T01541076  RH  020%=      5-min Rain = 0
KCH1 112204Z 03014KT 15/M08 A3021 RMK A01 T01521080  RH  019%=      5-min Rain = 0
KCH1 112205Z 02010KT 15/M08 A3021 RMK A01 T01481081  RH  020%=      5-min Rain = 0
KCH1 112206Z 03011G18KT 15/M08 A3021 RMK A01 T01491076  RH  020%=      5-min Rain = 0
KCH1 112207Z 03010G15KT 15/M07 A3021 RMK A01 T01541074  RH  020%=      5-min Rain = 0
KCH1 112208Z 00010KT 16/M07 A3021 RMK A01 T01591070  RH  020%=      5-min Rain = 0
KCH1 112209Z 02008KT 16/M08 A3021 RMK A01 T01591075  RH  019%=      5-min Rain = 0
KCH1 112210Z 03010G15KT 16/M08 A3021 RMK A01 T01591075  RH  019%=      5-min Rain = 0
KCH1 112211Z 03013G18KT 16/M08 A3021 RMK A01 T01591076  RH  019%=      5-min Rain = 0
KCH1 112212Z 03008KT 16/M08 A3021 RMK A01 T01581077  RH  019%=      5-min Rain = 0
KCH1 112213Z 03008G13KT 16/M07 A3021 RMK A01 T01571074  RH  020%=      5-min Rain = 0
KCH1 112214Z 02006KT 16/M07 A3021 RMK A01 T01601070  RH  020%=      5-min Rain = 0
KCH1 112215Z 03005KT 16/M07 A302 RMK A01 T01631068  RH  020%=      5-min Rain = 0
KCH1 112216Z 01011G17KT 16/M07 A3021 RMK A01 T01641072  RH  019%=      5-min Rain = 0
KCH1 112217Z 01013G18KT 16/M08 A3021 RMK A01 T01611077  RH  019%=      5-min Rain = 0
KCH1 112218Z 01012G17KT 16/M08 A3021 RMK A01 T01551080  RH  019%=      5-min Rain = 0
KCH1 112219Z 02009G14KT 15/M08 A3021 RMK A01 T01531077  RH  020%=      5-min Rain = 0
KCH1 112220Z 01012KT 15/M08 A3021 RMK A01 T01541075  RH  020%=      5-min Rain = 0
KCH1 112221Z 01014KT 15/M08 A3021 RMK A01 T01541076  RH  020%=      5-min Rain = 0
KCH1 112222Z 01012KT 15/M08 A3021 RMK A01 T01541077  RH  020%=      5-min Rain = 0
KCH1 112223Z 01008G13KT 15/M08 A3021 RMK A01 T01541075  RH  020%=      5-min Rain = 0
KCH1 112224Z 01013KT 16/M08 A3021 RMK A01 T01561076  RH  020%=      5-min Rain = 0
KCH1 112225Z 01010KT 16/M08 A3021 RMK A01 T01551078  RH  019%=      5-min Rain = 0
KCH1 112226Z 00009KT 15/M08 A3021 RMK A01 T01541077  RH  020%=      5-min Rain = 0
KCH1 112227Z 36010G15KT 15/M08 A3021 RMK A01 T01531079  RH  019%=      5-min Rain = 0
KCH1 112228Z 00012KT 15/M08 A302 RMK A01 T01531082  RH  019%=      5-min Rain = 0
KCH1 112229Z 02010KT 15/M09 A302 RMK A01 T01521085  RH  019%=      5-min Rain = 0
KCH1 112230Z 03013G19KT 15/M09 A3021 RMK A01 T01511085  RH  019%=      5-min Rain = 0
KCH1 112231Z 03011KT 15/M09 A3021 RMK A01 T01521088  RH  018%=      5-min Rain = 0
KCH1 112232Z 01009KT 15/M09 A3021 RMK A01 T01521088  RH  018%=      5-min Rain = 0
KCH1 112233Z 02006G11KT 15/M09 A3021 RMK A01 T01521086  RH  019%=      5-min Rain = 0
KCH1 112234Z 04010KT 15/M09 A3021 RMK A01 T01531085  RH  019%=      5-min Rain = 0
KCH1 112235Z 03011KT 15/M09 A3021 RMK A01 T01531086  RH  018%=      5-min Rain = 0
KCH1 112236Z 02011KT 15/M09 A3021 RMK A01 T01511085  RH  019%=      5-min Rain = 0
KCH1 112237Z 01011KT 15/M09 A3021 RMK A01 T01511086  RH  019%=      5-min Rain = 0
KCH1 112238Z 02006G11KT 15/M09 A3021 RMK A01 T01501086  RH  019%=      5-min Rain = 0
KCH1 112239Z 02012KT 15/M08 A3021 RMK A01 T01491084  RH  019%=      5-min Rain = 0
KCH1 112240Z 01011KT 15/M09 A3021 RMK A01 T01491087  RH  019%=      5-min Rain = 0
KCH1 112241Z 03009KT 15/M09 A3021 RMK A01 T01491086  RH  019%=      5-min Rain = 0
KCH1 112242Z 03015G22KT 15/M09 A3021 RMK A01 T01491086  RH  019%=      5-min Rain = 0
KCH1 112243Z 02015KT 15/M09 A3021 RMK A01 T01511089  RH  018%=      5-min Rain = 0
KCH1 112244Z 03014KT 15/M09 A3021 RMK A01 T01521092  RH  018%=      5-min Rain = 0
KCH1 112245Z 03011KT 15/M09 A3021 RMK A01 T01531090  RH  018%=      5-min Rain = 0
KCH1 112246Z 02011KT 16/M09 A3021 RMK A01 T01561087  RH  018%=      5-min Rain = 0
KCH1 112247Z 01015KT 16/M09 A3021 RMK A01 T01571086  RH  018%=      5-min Rain = 0
KCH1 112248Z 01015KT 16/M09 A302 RMK A01 T01571088  RH  018%=      5-min Rain = 0
KCH1 112249Z 01013G19KT 16/M09 A3021 RMK A01 T01561087  RH  018%=      5-min Rain = 0
KCH1 112250Z 01011G16KT 16/M08 A3021 RMK A01 T01561084  RH  018%=      5-min Rain = 0
KCH1 112251Z 01015G20KT 16/M08 A3021 RMK A01 T01571084  RH  018%=      5-min Rain = 0
KCH1 112252Z 01014KT 16/M09 A3021 RMK A01 T01561088  RH  018%=      5-min Rain = 0
KCH1 112253Z 01010KT 15/M09 A3021 RMK A01 T01531088  RH  018%=      5-min Rain = 0
KCH1 112254Z 01009KT 15/M09 A3021 RMK A01 T01521086  RH  019%=      5-min Rain = 0
KCH1 112255Z 02007KT 15/M09 A3021 RMK A01 T01511087  RH  019%=      5-min Rain = 0
KCH1 112256Z 03009KT 15/M09 A3021 RMK A01 T01511087  RH  018%=      5-min Rain = 0
KCH1 112257Z 01007KT 15/M09 A3021 RMK A01 T01511088  RH  018%=      5-min Rain = 0
KCH1 112258Z 03009G16KT 15/M09 A3021 RMK A01 T01501088  RH  018%=      5-min Rain = 0
KCH1 112259Z 02012KT 15/M09 A3021 RMK A01 T01511089  RH  018%=      5-min Rain = 0
KCH1 112300Z 03015KT 15/M09 A3021 RMK A01 T01501092  RH  018%=      5-min Rain = 0
KCH1 112301Z 02013KT 15/M09 A3021 RMK A01 T01491093  RH  018%=      5-min Rain = 0
KCH1 112302Z 02010KT 15/M09 A3021 RMK A01 T01491092  RH  018%=      5-min Rain = 0
KCH1 112303Z 03011G16KT 15/M09 A3021 RMK A01 T01491092  RH  018%=      5-min Rain = 0
KCH1 112304Z 04013KT 15/M09 A3021 RMK A01 T01481094  RH  018%=      5-min Rain = 0
KCH1 112305Z 04012KT 15/M09 A3021 RMK A01 T01481093  RH  018%=      5-min Rain = 0
KCH1 112306Z 02010KT 15/M09 A3021 RMK A01 T01481093  RH  018%=      5-min Rain = 0
KCH1 112307Z 02010KT 15/M09 A3022 RMK A01 T01491091  RH  018%=      5-min Rain = 0
KCH1 112308Z 01008KT 15/M09 A3021 RMK A01 T01511090  RH  018%=      5-min Rain = 0
KCH1 112309Z 03007KT 15/M09 A3022 RMK A01 T01521089  RH  018%=      5-min Rain = 0
KCH1 112310Z 03008G14KT 16/M09 A3021 RMK A01 T01551086  RH  018%=      5-min Rain = 0
KCH1 112311Z 03010KT 16/M09 A3022 RMK A01 T01551091  RH  018%=      5-min Rain = 0
KCH1 112312Z 03009KT 15/M09 A3021 RMK A01 T01541091  RH  018%=      5-min Rain = 0
KCH1 112313Z 02008KT 15/M09 A3021 RMK A01 T01531089  RH  018%=      5-min Rain = 0
KCH1 112314Z 02007KT 15/M09 A3021 RMK A01 T01531091  RH  018%=      5-min Rain = 0
KCH1 112315Z 03008KT 15/M09 A3021 RMK A01 T01521091  RH  018%=      5-min Rain = 0
KCH1 112316Z 03008KT 15/M09 A3021 RMK A01 T01511090  RH  018%=      5-min Rain = 0
KCH1 112317Z 03010KT 15/M09 A3021 RMK A01 T01501092  RH  018%=      5-min Rain = 0
KCH1 112318Z 03009KT 15/M09 A3021 RMK A01 T01491094  RH  018%=      5-min Rain = 0
KCH1 112319Z 02007KT 15/M09 A3021 RMK A01 T01491093  RH  018%=      5-min Rain = 0
KCH1 112320Z 02009KT 15/M09 A3021 RMK A01 T01481091  RH  018%=      5-min Rain = 0
KCH1 112321Z 01007KT 15/M09 A3021 RMK A01 T01481092  RH  018%=      5-min Rain = 0
KCH1 112322Z 03008KT 15/M09 A3021 RMK A01 T01481092  RH  018%=      5-min Rain = 0
KCH1 112323Z 02008KT 15/M09 A3021 RMK A01 T01481093  RH  018%=      5-min Rain = 0
KCH1 112324Z 02011KT 15/M09 A3021 RMK A01 T01481093  RH  018%=      5-min Rain = 0
KCH1 112325Z 02011KT 15/M10 A3021 RMK A01 T01471096  RH  018%=      5-min Rain = 0
KCH1 112326Z 02009G14KT 15/M10 A3021 RMK A01 T01461096  RH  018%=      5-min Rain = 0
KCH1 112327Z 03011KT 15/M10 A3021 RMK A01 T01461098  RH  018%=      5-min Rain = 0
KCH1 112328Z 03009KT 15/M10 A3021 RMK A01 T01461098  RH  018%=      5-min Rain = 0
KCH1 112329Z 03010KT 15/M10 A3021 RMK A01 T01451099  RH  017%=      5-min Rain = 0
KCH1 112330Z 04009KT 15/M10 A3021 RMK A01 T01451100  RH  017%=      5-min Rain = 0
KCH1 112331Z 03009KT 15/M10 A3021 RMK A01 T01461098  RH  018%=      5-min Rain = 0
KCH1 112332Z 03007KT 15/M10 A3021 RMK A01 T01461098  RH  017%=      5-min Rain = 0
KCH1 112333Z 04010KT 15/M10 A3022 RMK A01 T01461097  RH  018%=      5-min Rain = 0
KCH1 112334Z 03009KT 15/M10 A3022 RMK A01 T01461101  RH  017%=      5-min Rain = 0
KCH1 112335Z 03007KT 15/M10 A3022 RMK A01 T01461099  RH  017%=      5-min Rain = 0
KCH1 112336Z 02007KT 15/M10 A3022 RMK A01 T01461099  RH  018%=      5-min Rain = 0
KCH1 112337Z 02007KT 15/M10 A3022 RMK A01 T01451098  RH  018%=      5-min Rain = 0
KCH1 112338Z 02012KT 15/M10 A3022 RMK A01 T01451097  RH  018%=      5-min Rain = 0
KCH1 112339Z 02012KT 15/M10 A3022 RMK A01 T01451097  RH  018%=      5-min Rain = 0
KCH1 112340Z 02011KT 15/M10 A3022 RMK A01 T01451096  RH  018%=      5-min Rain = 0
KCH1 112341Z 01011KT 14/M10 A3022 RMK A01 T01441095  RH  018%=      5-min Rain = 0
KCH1 112342Z 02010KT 14/M10 A3022 RMK A01 T01441095  RH  018%=      5-min Rain = 0
KCH1 112343Z 01008KT 14/M09 A3022 RMK A01 T01441093  RH  018%=      5-min Rain = 0
KCH1 112344Z 01009KT 14/M09 A3022 RMK A01 T01431094  RH  018%=      5-min Rain = 0
KCH1 112345Z 02008G13KT 14/M09 A3022 RMK A01 T01431092  RH  019%=      5-min Rain = 0
KCH1 112346Z 03010KT 14/M09 A3022 RMK A01 T01431093  RH  019%=      5-min Rain = 0
KCH1 112347Z 03010KT 14/M09 A3022 RMK A01 T01441092  RH  019%=      5-min Rain = 0
KCH1 112348Z 02010KT 15/M09 A3022 RMK A01 T01451092  RH  019%=      5-min Rain = 0
KCH1 112349Z 03009KT 15/M09 A3022 RMK A01 T01461091  RH  018%=      5-min Rain = 0
KCH1 112350Z 03006KT 15/M09 A3022 RMK A01 T01471091  RH  018%=      5-min Rain = 0
KCH1 112351Z 02007KT 15/M09 A3022 RMK A01 T01481088  RH  019%=      5-min Rain = 0
KCH1 112352Z 03010KT 15/M09 A3022 RMK A01 T01491089  RH  018%=      5-min Rain = 0
KCH1 112353Z 04007KT 15/M09 A3022 RMK A01 T01491089  RH  018%=      5-min Rain = 0
KCH1 112354Z 02009KT 15/M09 A3022 RMK A01 T01491090  RH  018%=      5-min Rain = 0
KCH1 112355Z 02011KT 15/M09 A3022 RMK A01 T01491090  RH  018%=      5-min Rain = 0
KCH1 112356Z 02010KT 15/M09 A3022 RMK A01 T01491090  RH  018%=      5-min Rain = 0
KCH1 112357Z 02011KT 15/M09 A3022 RMK A01 T01481091  RH  018%=      5-min Rain = 0
KCH1 112358Z 01008KT 15/M09 A3022 RMK A01 T01471090  RH  019%=      5-min Rain = 0
KCH1 112359Z 03010KT 15/M09 A3022 RMK A01 T01461090  RH  019%=      5-min Rain = 0
KCH1 120000Z 02007KT 15/M09 A3022 RMK A01 T01461090  RH  019%=      5-min Rain = 0
KCH1 120001Z 02012KT 14/M09 A3022 RMK A01 T01441091  RH  019%=      5-min Rain = 0
KCH1 120002Z 00011KT 14/M09 A3022 RMK A01 T01431093  RH  019%=      5-min Rain = 0
KCH1 120003Z 00011KT 14/M09 A3022 RMK A01 T01421093  RH  019%=      5-min Rain = 0
KCH1 120004Z 01010KT 14/M09 A3023 RMK A01 T01411092  RH  019%=      5-min Rain = 0
KCH1 120005Z 01012KT 14/M09 A3023 RMK A01 T01411092  RH  019%=      5-min Rain = 0
KCH1 120006Z 01011KT 14/M09 A3023 RMK A01 T01401093  RH  019%=      5-min Rain = 0
KCH1 120007Z 01009KT 14/M09 A3023 RMK A01 T01401094  RH  019%=      5-min Rain = 0
KCH1 120008Z 01012KT 14/M09 A3023 RMK A01 T01391094  RH  019%=      5-min Rain = 0
KCH1 120009Z 01012KT 14/M09 A3023 RMK A01 T01391094  RH  019%=      5-min Rain = 0
KCH1 120010Z 01014KT 14/M09 A3023 RMK A01 T01391093  RH  019%=      5-min Rain = 0
KCH1 120011Z 01013G19KT 14/M09 A3023 RMK A01 T01381093  RH  019%=      5-min Rain = 0
KCH1 120012Z 01013KT 14/M09 A3023 RMK A01 T01381092  RH  019%=      5-min Rain = 0
KCH1 120013Z 00010G15KT 14/M09 A3023 RMK A01 T01381092  RH  019%=      5-min Rain = 0
KCH1 120014Z 00011G16KT 14/M09 A3023 RMK A01 T01371092  RH  019%=      5-min Rain = 0
KCH1 120015Z 01012KT 14/M09 A3024 RMK A01 T01371090  RH  020%=      5-min Rain = 0
KCH1 120016Z 01011KT 14/M09 A3024 RMK A01 T01361091  RH  020%=      5-min Rain = 0
KCH1 120017Z 02008KT 14/M09 A3024 RMK A01 T01361091  RH  020%=      5-min Rain = 0
KCH1 120018Z 01010KT 14/M09 A3024 RMK A01 T01351091  RH  020%=      5-min Rain = 0
KCH1 120019Z 01011G16KT 14/M09 A3024 RMK A01 T01351092  RH  020%=      5-min Rain = 0
KCH1 120020Z 02011G16KT 13/M09 A3024 RMK A01 T01341094  RH  020%=      5-min Rain = 0
KCH1 120021Z 03010KT 13/M09 A3024 RMK A01 T01341094  RH  020%=      5-min Rain = 0
KCH1 120022Z 02011KT 13/M10 A3024 RMK A01 T01331095  RH  020%=      5-min Rain = 0
KCH1 120023Z 02009KT 13/M09 A3024 RMK A01 T01331094  RH  020%=      5-min Rain = 0
KCH1 120024Z 03008KT 13/M09 A3024 RMK A01 T01331094  RH  020%=      5-min Rain = 0
KCH1 120025Z 01009KT 13/M09 A3024 RMK A01 T01311094  RH  020%=      5-min Rain = 0
KCH1 120026Z 02008KT 13/M09 A3024 RMK A01 T01311094  RH  020%=      5-min Rain = 0
KCH1 120027Z 01009KT 13/M09 A3024 RMK A01 T01311093  RH  020%=      5-min Rain = 0
KCH1 120028Z 02006KT 13/M09 A3024 RMK A01 T01301092  RH  020%=      5-min Rain = 0
KCH1 120029Z 01007KT 13/M09 A3024 RMK A01 T01301091  RH  021%=      5-min Rain = 0
KCH1 120030Z 01008KT 13/M09 A3024 RMK A01 T01291091  RH  021%=      5-min Rain = 0
KCH1 120031Z 01008KT 13/M09 A3024 RMK A01 T01281090  RH  021%=      5-min Rain = 0
KCH1 120032Z 01008KT 13/M09 A3024 RMK A01 T01281090  RH  021%=      5-min Rain = 0
KCH1 120033Z 03008KT 13/M09 A3024 RMK A01 T01271090  RH  021%=      5-min Rain = 0
KCH1 120034Z 02008KT 13/M09 A3024 RMK A01 T01271089  RH  021%=      5-min Rain = 0
KCH1 120035Z 02006KT 13/M09 A3024 RMK A01 T01281088  RH  021%=      5-min Rain = 0
KCH1 120036Z 02007KT 13/M09 A3024 RMK A01 T01271087  RH  022%=      5-min Rain = 0
KCH1 120037Z 02006KT 13/M09 A3024 RMK A01 T01261088  RH  022%=      5-min Rain = 0
KCH1 120038Z 01006KT 13/M09 A3024 RMK A01 T01261087  RH  022%=      5-min Rain = 0
KCH1 120039Z 00006KT 13/M09 A3024 RMK A01 T01261087  RH  022%=      5-min Rain = 0
KCH1 120040Z 02006KT 13/M09 A3024 RMK A01 T01251085  RH  022%=      5-min Rain = 0
KCH1 120041Z 01006KT 12/M09 A3024 RMK A01 T01241086  RH  022%=      5-min Rain = 0
KCH1 120042Z 01007KT 12/M09 A3024 RMK A01 T01231085  RH  022%=      5-min Rain = 0
KCH1 120043Z 00007KT 12/M09 A3025 RMK A01 T01231086  RH  022%=      5-min Rain = 0
KCH1 120044Z 01006KT 12/M09 A3025 RMK A01 T01231086  RH  022%=      5-min Rain = 0
KCH1 120045Z 01005KT 12/M09 A3025 RMK A01 T01231085  RH  022%=      5-min Rain = 0
KCH1 120046Z 00005KT 12/M09 A3025 RMK A01 T01231085  RH  023%=      5-min Rain = 0
KCH1 120047Z 00006KT 12/M09 A3025 RMK A01 T01221085  RH  023%=      5-min Rain = 0
KCH1 120048Z 01007KT 12/M09 A3025 RMK A01 T01211085  RH  023%=      5-min Rain = 0
KCH1 120049Z 01007KT 12/M09 A3025 RMK A01 T01211086  RH  023%=      5-min Rain = 0
KCH1 120050Z 01006KT 12/M09 A3025 RMK A01 T01211085  RH  023%=      5-min Rain = 0
KCH1 120051Z 00006KT 12/M09 A3025 RMK A01 T01211085  RH  023%=      5-min Rain = 0
KCH1 120052Z 01005KT 12/M09 A3025 RMK A01 T01211085  RH  023%=      5-min Rain = 0
KCH1 120053Z 01005KT 12/M09 A3025 RMK A01 T01201085  RH  023%=      5-min Rain = 0
KCH1 120054Z 01005KT 12/M08 A3025 RMK A01 T01191084  RH  023%=      5-min Rain = 0
KCH1 120055Z 01005KT 12/M08 A3025 RMK A01 T01181084  RH  023%=      5-min Rain = 0
KCH1 120056Z 00005KT 12/M08 A3025 RMK A01 T01181084  RH  023%=      5-min Rain = 0
KCH1 120057Z 00005KT 12/M08 A3025 RMK A01 T01171084  RH  024%=      5-min Rain = 0
KCH1 120058Z 00005KT 12/M08 A3025 RMK A01 T01171084  RH  024%=      5-min Rain = 0
KCH1 120059Z 00005KT 12/M08 A3025 RMK A01 T01171084  RH  024%=      5-min Rain = 0
KCH1 120100Z 00004KT 12/M08 A3025 RMK A01 T01171083  RH  024%=      5-min Rain = 0
KCH1 120101Z 00005KT 12/M08 A3025 RMK A01 T01171084  RH  024%=      5-min Rain = 0
KCH1 120102Z 01005KT 12/M08 A3025 RMK A01 T01161084  RH  024%=      5-min Rain = 0
KCH1 120103Z 01004KT 12/M08 A3025 RMK A01 T01161084  RH  024%=      5-min Rain = 0
KCH1 120104Z 01005KT 12/M08 A3025 RMK A01 T01151084  RH  024%=      5-min Rain = 0
KCH1 120105Z 01004KT 11/M08 A3025 RMK A01 T01141084  RH  024%=      5-min Rain = 0
KCH1 120106Z 01004KT 11/M08 A3025 RMK A01 T01141084  RH  024%=      5-min Rain = 0
KCH1 120107Z 01004KT 11/M08 A3025 RMK A01 T01131084  RH  024%=      5-min Rain = 0
KCH1 120108Z 01004KT 11/M08 A3025 RMK A01 T01131084  RH  024%=      5-min Rain = 0
KCH1 120109Z 01004KT 11/M09 A3025 RMK A01 T01121085  RH  024%=      5-min Rain = 0
KCH1 120110Z 01004KT 11/M08 A3025 RMK A01 T01121084  RH  024%=      5-min Rain = 0
KCH1 120111Z 01004KT 11/M08 A3025 RMK A01 T01121084  RH  025%=      5-min Rain = 0
KCH1 120112Z 01004KT 11/M08 A3025 RMK A01 T01111084  RH  025%=      5-min Rain = 0
KCH1 120113Z 01004KT 11/M08 A3025 RMK A01 T01111084  RH  025%=      5-min Rain = 0
KCH1 120114Z 01004KT 11/M08 A3025 RMK A01 T01111084  RH  025%=      5-min Rain = 0
KCH1 120115Z 01004KT 11/M08 A3025 RMK A01 T01111083  RH  025%=      5-min Rain = 0
KCH1 120116Z 01004KT 11/M08 A3025 RMK A01 T01101084  RH  025%=      5-min Rain = 0
KCH1 120117Z 01004KT 11/M08 A3025 RMK A01 T01101084  RH  025%=      5-min Rain = 0
KCH1 120118Z 01004KT 11/M08 A3025 RMK A01 T01101084  RH  025%=      5-min Rain = 0
KCH1 120119Z 01004KT 11/M08 A3025 RMK A01 T01101084  RH  025%=      5-min Rain = 0
KCH1 120120Z 00004KT 11/M08 A3025 RMK A01 T01091084  RH  025%=      5-min Rain = 0
KCH1 120121Z 00004KT 11/M08 A3025 RMK A01 T01091084  RH  025%=      5-min Rain = 0
KCH1 120122Z 00004KT 11/M08 A3025 RMK A01 T01081084  RH  025%=      5-min Rain = 0
KCH1 120123Z 00005KT 11/M08 A3025 RMK A01 T01081083  RH  025%=      5-min Rain = 0
KCH1 120124Z 00005KT 11/M08 A3025 RMK A01 T01071084  RH  025%=      5-min Rain = 0
KCH1 120125Z 00005KT 11/M08 A3025 RMK A01 T01071083  RH  025%=      5-min Rain = 0
KCH1 120126Z 00005KT 11/M08 A3025 RMK A01 T01071083  RH  025%=      5-min Rain = 0
KCH1 120127Z 00005KT 11/M08 A3025 RMK A01 T01071083  RH  026%=      5-min Rain = 0
KCH1 120128Z 00005KT 11/M08 A3025 RMK A01 T01071083  RH  026%=      5-min Rain = 0
KCH1 120129Z 00005KT 11/M08 A3026 RMK A01 T01071083  RH  025%=      5-min Rain = 0
KCH1 120130Z 00005KT 11/M08 A3026 RMK A01 T01071083  RH  025%=      5-min Rain = 0
KCH1 120131Z 00004KT 11/M08 A3026 RMK A01 T01071083  RH  025%=      5-min Rain = 0
KCH1 120132Z 00004KT 11/M08 A3026 RMK A01 T01071084  RH  025%=      5-min Rain = 0
KCH1 120133Z 01004KT 11/M08 A3026 RMK A01 T01071083  RH  025%=      5-min Rain = 0
KCH1 120134Z 01004KT 11/M08 A3026 RMK A01 T01081084  RH  025%=      5-min Rain = 0
KCH1 120135Z 01005KT 11/M08 A3026 RMK A01 T01071084  RH  025%=      5-min Rain = 0
KCH1 120136Z 01004KT 11/M08 A3026 RMK A01 T01071084  RH  025%=      5-min Rain = 0
KCH1 120137Z 02005KT 11/M08 A3026 RMK A01 T01071083  RH  025%=      5-min Rain = 0
KCH1 120138Z 02005KT 11/M08 A3026 RMK A01 T01071083  RH  025%=      5-min Rain = 0
KCH1 120139Z 01005KT 11/M08 A3026 RMK A01 T01061084  RH  026%=      5-min Rain = 0
KCH1 120140Z 01004KT 11/M08 A3026 RMK A01 T01051084  RH  026%=      5-min Rain = 0
KCH1 120141Z 01004KT 11/M08 A3026 RMK A01 T01051082  RH  026%=      5-min Rain = 0
KCH1 120142Z 01004KT 10/M08 A3026 RMK A01 T01021081  RH  027%=      5-min Rain = 0
KCH1 120143Z 00005KT 10/M08 A3026 RMK A01 T01001081  RH  027%=      5-min Rain = 0
KCH1 120144Z 00005KT 10/M08 A3026 RMK A01 T00991082  RH  027%=      5-min Rain = 0
KCH1 120145Z 00005KT 10/M08 A3026 RMK A01 T00991082  RH  027%=      5-min Rain = 0
KCH1 120146Z 01005KT 10/M08 A3026 RMK A01 T01001082  RH  027%=      5-min Rain = 0
KCH1 120147Z 01005KT 10/M08 A3026 RMK A01 T01011082  RH  027%=      5-min Rain = 0
KCH1 120148Z 01005KT 10/M08 A3026 RMK A01 T01021081  RH  027%=      5-min Rain = 0
KCH1 120149Z 01005KT 10/M08 A3026 RMK A01 T01031082  RH  026%=      5-min Rain = 0
KCH1 120150Z 01005KT 10/M08 A3026 RMK A01 T01031082  RH  026%=      5-min Rain = 0
KCH1 120151Z 00005KT 10/M08 A3026 RMK A01 T01031082  RH  026%=      5-min Rain = 0
KCH1 120152Z 00005KT 10/M08 A3026 RMK A01 T01031082  RH  026%=      5-min Rain = 0
KCH1 120153Z 36005KT 10/M08 A3026 RMK A01 T01031082  RH  026%=      5-min Rain = 0
KCH1 120154Z 35005KT 10/M08 A3026 RMK A01 T01031082  RH  027%=      5-min Rain = 0
KCH1 120155Z 35005KT 10/M08 A3026 RMK A01 T01031081  RH  027%=      5-min Rain = 0
KCH1 120156Z 35005KT 10/M08 A3026 RMK A01 T01031081  RH  027%=      5-min Rain = 0
KCH1 120157Z 35005KT 10/M08 A3026 RMK A01 T01031081  RH  026%=      5-min Rain = 0
KCH1 120158Z 35004KT 10/M08 A3026 RMK A01 T01041081  RH  027%=      5-min Rain = 0
KCH1 120159Z 35004KT 10/M08 A3026 RMK A01 T01031081  RH  026%=      5-min Rain = 0
KCH1 120200Z 35005KT 10/M08 A3026 RMK A01 T01031081  RH  026%=      5-min Rain = 0
KCH1 120201Z 35005KT 10/M08 A3026 RMK A01 T01041081  RH  026%=      5-min Rain = 0
KCH1 120202Z 36004KT 10/M08 A3026 RMK A01 T01041081  RH  026%=      5-min Rain = 0
KCH1 120203Z 35004KT 10/M08 A3027 RMK A01 T01041082  RH  026%=      5-min Rain = 0
KCH1 120204Z 35005KT 10/M08 A3027 RMK A01 T01031081  RH  026%=      5-min Rain = 0
KCH1 120205Z 36004KT 10/M08 A3027 RMK A01 T01031081  RH  027%=      5-min Rain = 0
KCH1 120206Z 00005KT 10/M08 A3027 RMK A01 T01031080  RH  027%=      5-min Rain = 0
KCH1 120207Z 00005KT 10/M08 A3027 RMK A01 T01001079  RH  028%=      5-min Rain = 0
KCH1 120208Z 00005KT 10/M08 A3027 RMK A01 T00981080  RH  028%=      5-min Rain = 0
KCH1 120209Z 01005KT 10/M08 A3027 RMK A01 T00961079  RH  028%=      5-min Rain = 0
KCH1 120210Z 01005KT 09/M08 A3027 RMK A01 T00941078  RH  029%=      5-min Rain = 0
KCH1 120211Z 01005KT 09/M08 A3027 RMK A01 T00911076  RH  030%=      5-min Rain = 0
KCH1 120212Z 02005KT 08/M07 A3027 RMK A01 T00841072  RH  032%=      5-min Rain = 0
KCH1 120213Z 01005KT 08/M07 A3027 RMK A01 T00751070  RH  035%=      5-min Rain = 0
KCH1 120214Z 01005KT 07/M07 A3027 RMK A01 T00691071  RH  036%=      5-min Rain = 0
KCH1 120215Z 02005KT 07/M07 A3027 RMK A01 T00651071  RH  037%=      5-min Rain = 0
KCH1 120216Z 01005KT 06/M07 A3027 RMK A01 T00631069  RH  038%=      5-min Rain = 0
KCH1 120217Z 01006KT 06/M07 A3027 RMK A01 T00621068  RH  039%=      5-min Rain = 0
KCH1 120218Z 01006KT 06/M07 A3027 RMK A01 T00611070  RH  039%=      5-min Rain = 0
KCH1 120219Z 01006KT 06/M07 A3027 RMK A01 T00621071  RH  038%=      5-min Rain = 0
KCH1 120220Z 01007KT 06/M07 A3027 RMK A01 T00641072  RH  037%=      5-min Rain = 0
KCH1 120221Z 01007KT 07/M07 A3027 RMK A01 T00681072  RH  036%=      5-min Rain = 0
KCH1 120222Z 00007KT 07/M07 A3027 RMK A01 T00711073  RH  035%=      5-min Rain = 0
KCH1 120223Z 00007KT 08/M07 A3027 RMK A01 T00751072  RH  035%=      5-min Rain = 0
KCH1 120224Z 36007KT 08/M07 A3027 RMK A01 T00781072  RH  034%=      5-min Rain = 0
KCH1 120225Z 00007KT 08/M07 A3027 RMK A01 T00821073  RH  033%=      5-min Rain = 0
KCH1 120226Z 00007KT 09/M07 A3027 RMK A01 T00861073  RH  032%=      5-min Rain = 0
KCH1 120227Z 01007KT 09/M07 A3027 RMK A01 T00881074  RH  031%=      5-min Rain = 0
KCH1 120228Z 00007KT 09/M08 A3027 RMK A01 T00891075  RH  031%=      5-min Rain = 0
KCH1 120229Z 01007KT 09/M07 A3027 RMK A01 T00901074  RH  030%=      5-min Rain = 0
KCH1 120230Z 01006KT 09/M07 A3027 RMK A01 T00911073  RH  030%=      5-min Rain = 0
KCH1 120231Z 01006KT 09/M07 A3027 RMK A01 T00911074  RH  030%=      5-min Rain = 0
KCH1 120232Z 01007KT 09/M07 A3027 RMK A01 T00911074  RH  030%=      5-min Rain = 0
KCH1 120233Z 01007KT 09/M08 A3027 RMK A01 T00901075  RH  031%=      5-min Rain = 0
KCH1 120234Z 01007KT 09/M07 A3027 RMK A01 T00891074  RH  031%=      5-min Rain = 0
KCH1 120235Z 01007KT 09/M07 A3027 RMK A01 T00881074  RH  031%=      5-min Rain = 0
KCH1 120236Z 01007KT 09/M08 A3027 RMK A01 T00891075  RH  031%=      5-min Rain = 0
KCH1 120237Z 01007KT 09/M07 A3027 RMK A01 T00901074  RH  031%=      5-min Rain = 0
KCH1 120238Z 01007KT 09/M07 A3027 RMK A01 T00901074  RH  031%=      5-min Rain = 0
KCH1 120239Z 01007KT 09/M08 A3027 RMK A01 T00911075  RH  030%=      5-min Rain = 0
KCH1 120240Z 01007KT 09/M08 A3027 RMK A01 T00921075  RH  030%=      5-min Rain = 0
KCH1 120241Z 00007KT 09/M08 A3027 RMK A01 T00921076  RH  030%=      5-min Rain = 0
KCH1 120242Z 01006KT 09/M08 A3028 RMK A01 T00931076  RH  030%=      5-min Rain = 0
KCH1 120243Z 01006KT 09/M08 A3028 RMK A01 T00931076  RH  030%=      5-min Rain = 0
KCH1 120244Z 01006KT 09/M08 A3028 RMK A01 T00931076  RH  029%=      5-min Rain = 0
KCH1 120245Z 01006KT 09/M08 A3028 RMK A01 T00931077  RH  029%=      5-min Rain = 0
KCH1 120246Z 01006KT 09/M08 A3028 RMK A01 T00931076  RH  029%=      5-min Rain = 0
KCH1 120247Z 01006KT 09/M08 A3028 RMK A01 T00941075  RH  030%=      5-min Rain = 0
KCH1 120248Z 00006KT 09/M08 A3028 RMK A01 T00931076  RH  029%=      5-min Rain = 0
KCH1 120249Z 00005KT 09/M08 A3028 RMK A01 T00931078  RH  029%=      5-min Rain = 0
KCH1 120250Z 00006KT 09/M08 A3028 RMK A01 T00931078  RH  029%=      5-min Rain = 0
KCH1 120251Z 01007KT 09/M08 A3028 RMK A01 T00931080  RH  028%=      5-min Rain = 0
KCH1 120252Z 01007KT 10/M08 A3028 RMK A01 T00951082  RH  028%=      5-min Rain = 0
KCH1 120253Z 00007KT 10/M08 A3028 RMK A01 T00961083  RH  028%=      5-min Rain = 0
KCH1 120254Z 01007KT 10/M08 A3028 RMK A01 T00971082  RH  027%=      5-min Rain = 0
KCH1 120255Z 01006KT 10/M08 A3028 RMK A01 T00961083  RH  027%=      5-min Rain = 0
KCH1 120256Z 01007KT 10/M09 A3028 RMK A01 T00961085  RH  027%=      5-min Rain = 0
KCH1 120257Z 01007KT 10/M09 A3028 RMK A01 T00971085  RH  027%=      5-min Rain = 0
KCH1 120258Z 02006KT 10/M09 A3028 RMK A01 T00971087  RH  026%=      5-min Rain = 0
KCH1 120259Z 01006KT 10/M09 A3028 RMK A01 T00981087  RH  026%=      5-min Rain = 0
KCH1 120300Z 01006KT 10/M09 A3028 RMK A01 T00991087  RH  026%=      5-min Rain = 0
KCH1 120301Z 01006KT 10/M09 A3028 RMK A01 T00981086  RH  026%=      5-min Rain = 0
KCH1 120302Z 01006KT 10/M09 A3028 RMK A01 T00971087  RH  026%=      5-min Rain = 0
KCH1 120303Z 01006KT 10/M09 A3028 RMK A01 T00971087  RH  026%=      5-min Rain = 0
KCH1 120304Z 02006KT 10/M09 A3028 RMK A01 T00971088  RH  026%=      5-min Rain = 0
KCH1 120305Z 01006KT 10/M09 A3029 RMK A01 T00971087  RH  026%=      5-min Rain = 0
KCH1 120306Z 01006KT 10/M09 A3029 RMK A01 T00971087  RH  026%=      5-min Rain = 0
KCH1 120307Z 01006KT 10/M09 A3029 RMK A01 T00971088  RH  026%=      5-min Rain = 0
KCH1 120308Z 01006KT 10/M09 A3029 RMK A01 T00961089  RH  026%=      5-min Rain = 0
KCH1 120309Z 01006KT 10/M09 A3029 RMK A01 T00961088  RH  026%=      5-min Rain = 0
KCH1 120310Z 01005KT 10/M09 A3029 RMK A01 T00961088  RH  026%=      5-min Rain = 0
KCH1 120311Z 00005KT 10/M09 A3029 RMK A01 T00961088  RH  026%=      5-min Rain = 0
KCH1 120312Z 00005KT 10/M09 A3029 RMK A01 T00961087  RH  027%=      5-min Rain = 0
KCH1 120313Z 01005KT 10/M09 A3029 RMK A01 T00951087  RH  027%=      5-min Rain = 0
KCH1 120314Z 01005KT 10/M09 A3029 RMK A01 T00951087  RH  027%=      5-min Rain = 0
KCH1 120315Z 00006KT 09/M09 A303 RMK A01 T00941086  RH  027%=      5-min Rain = 0
KCH1 120316Z 01006KT 09/M09 A303 RMK A01 T00941086  RH  027%=      5-min Rain = 0
KCH1 120317Z 01006KT 09/M09 A303 RMK A01 T00941086  RH  027%=      5-min Rain = 0
KCH1 120318Z 01005KT 09/M09 A303 RMK A01 T00941085  RH  027%=      5-min Rain = 0
KCH1 120319Z 00005KT 09/M08 A303 RMK A01 T00941084  RH  028%=      5-min Rain = 0
KCH1 120320Z 01006KT 09/M08 A303 RMK A01 T00931083  RH  028%=      5-min Rain = 0
KCH1 120321Z 00006KT 09/M08 A303 RMK A01 T00931082  RH  028%=      5-min Rain = 0
KCH1 120322Z 00005KT 09/M08 A303 RMK A01 T00921083  RH  028%=      5-min Rain = 0
KCH1 120323Z 36006KT 09/M08 A303 RMK A01 T00911083  RH  028%=      5-min Rain = 0
KCH1 120324Z 36006KT 09/M08 A303 RMK A01 T00911082  RH  029%=      5-min Rain = 0
KCH1 120325Z 00006KT 09/M08 A303 RMK A01 T00901082  RH  029%=      5-min Rain = 0
KCH1 120326Z 36005KT 09/M08 A303 RMK A01 T00901082  RH  029%=      5-min Rain = 0
KCH1 120327Z 00005KT 09/M08 A303 RMK A01 T00891081  RH  029%=      5-min Rain = 0
KCH1 120328Z 36006KT 09/M08 A303 RMK A01 T00891082  RH  029%=      5-min Rain = 0
KCH1 120329Z 00005KT 09/M08 A303 RMK A01 T00891081  RH  029%=      5-min Rain = 0
KCH1 120330Z 00006KT 09/M08 A303 RMK A01 T00891082  RH  029%=      5-min Rain = 0
KCH1 120331Z 00006KT 09/M08 A303 RMK A01 T00891082  RH  029%=      5-min Rain = 0
KCH1 120332Z 00006KT 09/M08 A303 RMK A01 T00891081  RH  029%=      5-min Rain = 0
KCH1 120333Z 36005KT 09/M08 A303 RMK A01 T00881081  RH  029%=      5-min Rain = 0
KCH1 120334Z 36006KT 09/M08 A303 RMK A01 T00871081  RH  030%=      5-min Rain = 0
KCH1 120335Z 36006KT 09/M08 A303 RMK A01 T00871081  RH  030%=      5-min Rain = 0
KCH1 120336Z 00006KT 09/M08 A303 RMK A01 T00871081  RH  030%=      5-min Rain = 0
KCH1 120337Z 00006KT 09/M08 A303 RMK A01 T00871080  RH  030%=      5-min Rain = 0
KCH1 120338Z 01006KT 09/M08 A3031 RMK A01 T00871080  RH  030%=      5-min Rain = 0
KCH1 120339Z 00006KT 09/M08 A3031 RMK A01 T00871080  RH  030%=      5-min Rain = 0
KCH1 120340Z 00006KT 09/M08 A3031 RMK A01 T00871080  RH  030%=      5-min Rain = 0
KCH1 120341Z 00006KT 09/M08 A3031 RMK A01 T00871080  RH  030%=      5-min Rain = 0
KCH1 120342Z 00006KT 09/M08 A3031 RMK A01 T00871080  RH  030%=      5-min Rain = 0
KCH1 120343Z 00006KT 09/M08 A3031 RMK A01 T00871079  RH  030%=      5-min Rain = 0
KCH1 120344Z 36006KT 09/M08 A3031 RMK A01 T00871079  RH  030%=      5-min Rain = 0
KCH1 120345Z 00006KT 09/M08 A3031 RMK A01 T00871080  RH  030%=      5-min Rain = 0
KCH1 120346Z 36005KT 09/M08 A3031 RMK A01 T00871079  RH  030%=      5-min Rain = 0
KCH1 120347Z 36006KT 09/M08 A3031 RMK A01 T00861079  RH  030%=      5-min Rain = 0
KCH1 120348Z 36006KT 09/M08 A3031 RMK A01 T00861079  RH  030%=      5-min Rain = 0
KCH1 120349Z 35005KT 09/M08 A3031 RMK A01 T00851079  RH  030%=      5-min Rain = 0
KCH1 120350Z 36005KT 09/M08 A3031 RMK A01 T00851079  RH  030%=      5-min Rain = 0
KCH1 120351Z 00005KT 09/M08 A3031 RMK A01 T00851079  RH  030%=      5-min Rain = 0
KCH1 120352Z 36005KT 09/M08 A3031 RMK A01 T00851079  RH  030%=      5-min Rain = 0
KCH1 120353Z 00005KT 09/M08 A3031 RMK A01 T00851079  RH  030%=      5-min Rain = 0
KCH1 120354Z 36005KT 09/M08 A3031 RMK A01 T00851079  RH  030%=      5-min Rain = 0
KCH1 120355Z 36004KT 09/M08 A3031 RMK A01 T00851079  RH  031%=      5-min Rain = 0
KCH1 120356Z 36004KT 08/M08 A3031 RMK A01 T00841078  RH  031%=      5-min Rain = 0
KCH1 120357Z 35004KT 08/M08 A3031 RMK A01 T00841079  RH  031%=      5-min Rain = 0
KCH1 120358Z 35004KT 08/M08 A3031 RMK A01 T00831079  RH  031%=      5-min Rain = 0
KCH1 120359Z 36004KT 08/M08 A3031 RMK A01 T00831078  RH  031%=      5-min Rain = 0
KCH1 120400Z 00004KT 08/M08 A3031 RMK A01 T00821078  RH  031%=      5-min Rain = 0
KCH1 120401Z 01005KT 08/M08 A3031 RMK A01 T00821077  RH  032%=      5-min Rain = 0
KCH1 120402Z 01004KT 08/M08 A3031 RMK A01 T00821076  RH  032%=      5-min Rain = 0
KCH1 120403Z 01005KT 08/M08 A3031 RMK A01 T00821076  RH  032%=      5-min Rain = 0
KCH1 120404Z 01005KT 08/M08 A3032 RMK A01 T00811076  RH  032%=      5-min Rain = 0
KCH1 120405Z 00005KT 08/M08 A3032 RMK A01 T00811075  RH  032%=      5-min Rain = 0
KCH1 120406Z 00005KT 08/M08 A3032 RMK A01 T00801075  RH  032%=      5-min Rain = 0
KCH1 120407Z 36005KT 08/M08 A3032 RMK A01 T00801075  RH  033%=      5-min Rain = 0
KCH1 120408Z 36005KT 08/M07 A3032 RMK A01 T00801074  RH  033%=      5-min Rain = 0
KCH1 120409Z 35005KT 08/M07 A3031 RMK A01 T00791073  RH  033%=      5-min Rain = 0
KCH1 120410Z 35006KT 08/M07 A3032 RMK A01 T00791072  RH  033%=      5-min Rain = 0
KCH1 120411Z 35005KT 08/M07 A3032 RMK A01 T00791072  RH  033%=      5-min Rain = 0
KCH1 120412Z 35005KT 08/M07 A3032 RMK A01 T00791072  RH  033%=      5-min Rain = 0
KCH1 120413Z 34004KT 08/M07 A3032 RMK A01 T00791072  RH  034%=      5-min Rain = 0
KCH1 120414Z 34004KT 08/M07 A3032 RMK A01 T00771073  RH  034%=      5-min Rain = 0
KCH1 120415Z 33005KT 08/M07 A3032 RMK A01 T00751071  RH  035%=      5-min Rain = 0
KCH1 120416Z 34005KT 07/M07 A3032 RMK A01 T00731068  RH  036%=      5-min Rain = 0
KCH1 120417Z 34005KT 07/M07 A3032 RMK A01 T00731065  RH  037%=      5-min Rain = 0
KCH1 120418Z 35006KT 07/M06 A3032 RMK A01 T00721064  RH  037%=      5-min Rain = 0
KCH1 120419Z 35006KT 07/M06 A3032 RMK A01 T00721064  RH  037%=      5-min Rain = 0
KCH1 120420Z 34006KT 07/M06 A3032 RMK A01 T00721063  RH  038%=      5-min Rain = 0
KCH1 120421Z 34006KT 07/M06 A3032 RMK A01 T00721063  RH  038%=      5-min Rain = 0
KCH1 120422Z 34006KT 07/M06 A3032 RMK A01 T00721061  RH  038%=      5-min Rain = 0
KCH1 120423Z 33006KT 07/M06 A3032 RMK A01 T00721058  RH  039%=      5-min Rain = 0
KCH1 120424Z 33006KT 07/M05 A3032 RMK A01 T00711054  RH  040%=      5-min Rain = 0
KCH1 120425Z 34006KT 07/M05 A3032 RMK A01 T00711050  RH  042%=      5-min Rain = 0
KCH1 120426Z 35007KT 07/M05 A3032 RMK A01 T00701052  RH  041%=      5-min Rain = 0
KCH1 120427Z 34006KT 07/M06 A3032 RMK A01 T00701056  RH  040%=      5-min Rain = 0
KCH1 120428Z 35006KT 07/M06 A3032 RMK A01 T00711058  RH  039%=      5-min Rain = 0
KCH1 120429Z 35006KT 07/M06 A3032 RMK A01 T00711060  RH  039%=      5-min Rain = 0
KCH1 120430Z 35005KT 07/M06 A3032 RMK A01 T00711061  RH  038%=      5-min Rain = 0
KCH1 120431Z 36006KT 07/M06 A3032 RMK A01 T00711062  RH  038%=      5-min Rain = 0
KCH1 120432Z 35005KT 07/M06 A3032 RMK A01 T00721063  RH  038%=      5-min Rain = 0
KCH1 120433Z 35005KT 07/M06 A3033 RMK A01 T00721063  RH  038%=      5-min Rain = 0
KCH1 120434Z 34005KT 07/M06 A3033 RMK A01 T00711063  RH  038%=      5-min Rain = 0
KCH1 120435Z 35005KT 07/M06 A3033 RMK A01 T00691063  RH  038%=      5-min Rain = 0
KCH1 120436Z 35004KT 07/M06 A3033 RMK A01 T00691063  RH  038%=      5-min Rain = 0
KCH1 120437Z 35005KT 07/M06 A3033 RMK A01 T00681063  RH  039%=      5-min Rain = 0
KCH1 120438Z 35004KT 07/M06 A3033 RMK A01 T00701062  RH  039%=      5-min Rain = 0
KCH1 120439Z 35005KT 07/M06 A3033 RMK A01 T00701063  RH  038%=      5-min Rain = 0
KCH1 120440Z 35004KT 07/M06 A3033 RMK A01 T00701063  RH  038%=      5-min Rain = 0
KCH1 120441Z 36004KT 07/M06 A3033 RMK A01 T00701062  RH  038%=      5-min Rain = 0
KCH1 120442Z 36004KT 07/M06 A3033 RMK A01 T00701062  RH  038%=      5-min Rain = 0
KCH1 120443Z 00004KT 07/M06 A3033 RMK A01 T00701063  RH  038%=      5-min Rain = 0
KCH1 120444Z 36004KT 07/M06 A3033 RMK A01 T00701063  RH  038%=      5-min Rain = 0
KCH1 120445Z 00005KT 07/M06 A3033 RMK A01 T00701062  RH  038%=      5-min Rain = 0
KCH1 120446Z 36005KT 07/M06 A3033 RMK A01 T00701062  RH  038%=      5-min Rain = 0
KCH1 120447Z 00005KT 07/M06 A3033 RMK A01 T00711061  RH  039%=      5-min Rain = 0
KCH1 120448Z 01005KT 07/M06 A3033 RMK A01 T00711060  RH  039%=      5-min Rain = 0
KCH1 120449Z 01005KT 07/M06 A3033 RMK A01 T00721059  RH  039%=      5-min Rain = 0
KCH1 120450Z 00005KT 07/M06 A3033 RMK A01 T00731059  RH  039%=      5-min Rain = 0
KCH1 120451Z 00005KT 07/M06 A3033 RMK A01 T00731059  RH  039%=      5-min Rain = 0
KCH1 120452Z 01004KT 07/M06 A3033 RMK A01 T00741058  RH  039%=      5-min Rain = 0
KCH1 120453Z 01004KT 07/M06 A3033 RMK A01 T00741058  RH  039%=      5-min Rain = 0
KCH1 120454Z 01004KT 07/M06 A3033 RMK A01 T00741057  RH  039%=      5-min Rain = 0
KCH1 120455Z 01004KT 07/M06 A3033 RMK A01 T00731057  RH  039%=      5-min Rain = 0
KCH1 120456Z 01003KT 07/M06 A3033 RMK A01 T00741057  RH  039%=      5-min Rain = 0
KCH1 120457Z 01003KT 07/M06 A3033 RMK A01 T00731057  RH  039%=      5-min Rain = 0
KCH1 120458Z 01003KT 07/M06 A3033 RMK A01 T00731056  RH  039%=      5-min Rain = 0
KCH1 120459Z 00002KT 07/M06 A3033 RMK A01 T00731056  RH  039%=      5-min Rain = 0

Page generated in 0.0706 seconds.